Darstellungsparameter: Aktuell verwendete Einstellungen:
Skalierung der Graphiken ... ?
xyx+y,   Skalierungsfaktor:      Skalierung: Modus: x, Faktor: 1
Darstellungszeitraum ... ?
Vom - - bis: - -   Zeitraum: 17.06.2020 - 21.06.2020
Min/Max/Avg-Anzeige ... ?
Zeige MMA aktuell
Zeige MMA Monat
Zeige MMA alles
Zeige --A aktuell
Zeige --A Monat
Zeige --A alles
Keine MMA-Anzeige
MMA:
Minimum Maximum Average (ber die Originaldaten)
MMA-Basis: 23.02.2003 - 29.06.2020
Quicknavigation für Darstellung... ?
Tage:      1T, 2T, 3T, 5T -1T -2T -3T -5T +1T +2T +3T +5T
Wochen: 1W, 2W, 3W -1W -2W -3W +1W +2W +3W
Monate: 1M, 3M, 6M -1M -3M -6M +1M +3M +6M
Jahre:    1J, 3J, 5J, 10J -1J -3J -5J -10J +1J +3J +5J +10J
Nutze für die Darstellung ... ?
Originaldaten oder Mittelwerte auf ...
Stundenbasis Tagesbasis Wochenbasis
Monatsbasis Jahresbasis      Datenbasis: Original-Daten
Darstellen als:
Statistik (Auto) Statistik J:M      Darstellung:
Zur Graphik,    zurück zur Übersicht aller Sensoren.
 
Tabellarische Datenbersicht: ?
 
Sensor: Nr:Datum:Temp:Abs-Feuchte:Windchill:Wind:
Aussen-T/F 1 17-06-2020 00:00:00 14.9 C 11.98 g/m*3 14.9 C 0 km/h
2 17-06-2020 00:05:00 14.8 C 11.91 g/m*3 14.8 C 0 km/h
3 17-06-2020 00:10:00 14.8 C 11.91 g/m*3 14.8 C 0 km/h
4 17-06-2020 00:15:00 14.7 C 11.83 g/m*3 14.7 C 0 km/h
5 17-06-2020 00:20:00 14.7 C 11.83 g/m*3 14.7 C 0 km/h
6 17-06-2020 00:25:00 14.7 C 11.83 g/m*3 14.7 C 0 km/h
7 17-06-2020 00:30:00 14.6 C 11.76 g/m*3 14.6 C 0 km/h
8 17-06-2020 00:35:00 14.6 C 11.76 g/m*3 14.6 C 0 km/h
9 17-06-2020 00:40:00 14.4 C 11.62 g/m*3 14.4 C 0 km/h
10 17-06-2020 00:45:00 14.4 C 11.62 g/m*3 14.4 C 0 km/h
11 17-06-2020 00:50:00 14.3 C 11.55 g/m*3 14.3 C 0 km/h
12 17-06-2020 00:55:00 14.3 C 11.67 g/m*3 14.3 C 0 km/h
13 17-06-2020 01:00:00 14.2 C 11.6 g/m*3 14.2 C 0 km/h
14 17-06-2020 01:05:00 14.2 C 11.6 g/m*3 14.2 C 0 km/h
15 17-06-2020 01:10:00 14.1 C 11.53 g/m*3 14.1 C 0 km/h
16 17-06-2020 01:15:00 14.1 C 11.53 g/m*3 14.1 C 0 km/h
17 17-06-2020 01:20:00 14.1 C 11.53 g/m*3 14.1 C 0 km/h
18 17-06-2020 01:25:00 14.1 C 11.53 g/m*3 14.1 C 0 km/h
19 17-06-2020 01:30:00 14 C 11.46 g/m*3 14 C 0 km/h
20 17-06-2020 01:35:00 13.9 C 11.39 g/m*3 13.9 C 0 km/h
21 17-06-2020 01:40:00 13.9 C 11.39 g/m*3 13.9 C 0 km/h
22 17-06-2020 01:45:00 13.8 C 11.32 g/m*3 13.8 C 0 km/h
23 17-06-2020 01:50:00 13.8 C 11.32 g/m*3 13.8 C 0 km/h
24 17-06-2020 01:55:00 13.8 C 11.32 g/m*3 13.8 C 0 km/h
25 17-06-2020 02:00:00 13.9 C 11.39 g/m*3 13.9 C 0 km/h
Sensor: Nr:Datum:Temp:Abs-Feuchte:Windchill:Wind:
Aussen-T/F 26 17-06-2020 02:05:00 14 C 11.58 g/m*3 14 C 0 km/h
27 17-06-2020 02:10:00 14.2 C 11.72 g/m*3 14.2 C 0 km/h
28 17-06-2020 02:15:00 14.3 C 11.79 g/m*3 14.3 C 0 km/h
29 17-06-2020 02:20:00 14.4 C 11.87 g/m*3 14.4 C 1.6 km/h
30 17-06-2020 02:25:00 14.6 C 12.01 g/m*3 14.6 C 1.6 km/h
31 17-06-2020 02:30:00 14.7 C 12.09 g/m*3 14.7 C 0 km/h
32 17-06-2020 02:35:00 14.7 C 12.09 g/m*3 14.7 C 0 km/h
33 17-06-2020 02:40:00 14.7 C 12.09 g/m*3 14.7 C 0 km/h
34 17-06-2020 02:45:00 14.7 C 12.09 g/m*3 14.7 C 0 km/h
35 17-06-2020 02:50:00 14.7 C 12.09 g/m*3 14.7 C 0 km/h
36 17-06-2020 02:55:00 14.7 C 12.09 g/m*3 14.7 C 0 km/h
37 17-06-2020 03:00:00 14.7 C 12.09 g/m*3 14.7 C 0 km/h
38 17-06-2020 03:05:00 14.7 C 12.09 g/m*3 14.7 C 0 km/h
39 17-06-2020 03:10:00 14.6 C 12.01 g/m*3 14.6 C 0 km/h
40 17-06-2020 03:15:00 14.6 C 12.01 g/m*3 14.6 C 1.6 km/h
41 17-06-2020 03:20:00 14.6 C 12.01 g/m*3 14.6 C 0 km/h
42 17-06-2020 03:25:00 14.6 C 12.01 g/m*3 14.6 C 0 km/h
43 17-06-2020 03:30:00 14.6 C 12.01 g/m*3 14.6 C 3.2 km/h
44 17-06-2020 03:35:00 14.5 C 11.94 g/m*3 14.5 C 0 km/h
45 17-06-2020 03:40:00 14.4 C 11.87 g/m*3 14.4 C 0 km/h
46 17-06-2020 03:45:00 14.5 C 12.06 g/m*3 14.5 C 3.2 km/h
47 17-06-2020 03:50:00 14.4 C 11.87 g/m*3 14.4 C 1.6 km/h
48 17-06-2020 03:55:00 14.4 C 11.87 g/m*3 14.4 C 0 km/h
49 17-06-2020 04:00:00 14.4 C 11.87 g/m*3 14.4 C 0 km/h
50 17-06-2020 04:05:00 14.4 C 11.99 g/m*3 14.4 C 0 km/h
Sensor: Nr:Datum:Temp:Abs-Feuchte:Windchill:Wind:
Aussen-T/F 51 17-06-2020 04:10:00 14.3 C 11.92 g/m*3 14.3 C 0 km/h
52 17-06-2020 04:15:00 14.3 C 11.92 g/m*3 14.3 C 0 km/h
53 17-06-2020 04:20:00 14.2 C 11.84 g/m*3 14.2 C 0 km/h
54 17-06-2020 04:25:00 14.2 C 11.84 g/m*3 14.2 C 0 km/h
55 17-06-2020 04:30:00 14.2 C 11.84 g/m*3 14.2 C 0 km/h
56 17-06-2020 04:35:00 14.2 C 11.84 g/m*3 14.2 C 0 km/h
57 17-06-2020 04:40:00 14.1 C 11.77 g/m*3 14.1 C 0 km/h
58 17-06-2020 04:45:00 14.1 C 11.77 g/m*3 14.1 C 0 km/h
59 17-06-2020 04:50:00 14.1 C 11.77 g/m*3 14.1 C 0 km/h
60 17-06-2020 04:55:00 14.1 C 11.77 g/m*3 14.1 C 0 km/h
61 17-06-2020 05:00:00 14.1 C 11.77 g/m*3 14.1 C 0 km/h
62 17-06-2020 05:05:00 14.1 C 11.77 g/m*3 14.1 C 0 km/h
63 17-06-2020 05:10:00 14.1 C 11.77 g/m*3 14.1 C 0 km/h
64 17-06-2020 05:15:00 14.1 C 11.77 g/m*3 14.1 C 0 km/h
65 17-06-2020 05:20:00 14.1 C 11.77 g/m*3 14.1 C 0 km/h
66 17-06-2020 05:25:00 14.2 C 11.84 g/m*3 14.2 C 0 km/h
67 17-06-2020 05:30:00 14.2 C 11.84 g/m*3 14.2 C 0 km/h
68 17-06-2020 05:35:00 14.2 C 11.84 g/m*3 14.2 C 0 km/h
69 17-06-2020 05:40:00 14.2 C 11.84 g/m*3 14.2 C 0 km/h
70 17-06-2020 05:45:00 14.2 C 11.84 g/m*3 14.2 C 0 km/h
71 17-06-2020 05:50:00 14.2 C 11.84 g/m*3 14.2 C 0 km/h
72 17-06-2020 05:55:00 14.3 C 11.92 g/m*3 14.3 C 0 km/h
73 17-06-2020 06:00:00 14.3 C 11.92 g/m*3 14.3 C 0 km/h
74 17-06-2020 06:05:00 14.3 C 11.92 g/m*3 14.3 C 0 km/h
75 17-06-2020 06:10:00 14.3 C 11.92 g/m*3 14.3 C 0 km/h
Sensor: Nr:Datum:Temp:Abs-Feuchte:Windchill:Wind:
Aussen-T/F 76 17-06-2020 06:15:00 14.3 C 11.92 g/m*3 14.3 C 0 km/h
77 17-06-2020 06:20:00 14.3 C 11.92 g/m*3 14.3 C 0 km/h
78 17-06-2020 06:25:00 14.3 C 11.92 g/m*3 14.3 C 0 km/h
79 17-06-2020 06:30:00 14.3 C 11.92 g/m*3 14.3 C 0 km/h
80 17-06-2020 06:35:00 14.4 C 11.99 g/m*3 14.4 C 0 km/h
81 17-06-2020 06:40:00 14.4 C 11.99 g/m*3 14.4 C 0 km/h
82 17-06-2020 06:45:00 14.4 C 11.99 g/m*3 14.4 C 0 km/h
83 17-06-2020 06:50:00 14.4 C 11.99 g/m*3 14.4 C 0 km/h
84 17-06-2020 06:55:00 14.4 C 11.99 g/m*3 14.4 C 0 km/h
85 17-06-2020 07:00:00 14.4 C 11.99 g/m*3 14.4 C 0 km/h
86 17-06-2020 07:05:00 14.5 C 12.06 g/m*3 14.5 C 0 km/h
87 17-06-2020 07:10:00 14.6 C 12.14 g/m*3 14.6 C 0 km/h
88 17-06-2020 07:15:00 14.6 C 12.14 g/m*3 14.6 C 0 km/h
89 17-06-2020 07:20:00 14.6 C 12.14 g/m*3 14.6 C 0 km/h
90 17-06-2020 07:25:00 14.6 C 12.14 g/m*3 14.6 C 0 km/h
91 17-06-2020 07:30:00 14.6 C 12.14 g/m*3 14.6 C 0 km/h
92 17-06-2020 07:35:00 14.6 C 12.14 g/m*3 14.6 C 0 km/h
93 17-06-2020 07:40:00 14.6 C 12.14 g/m*3 14.6 C 0 km/h
94 17-06-2020 07:45:00 14.7 C 12.21 g/m*3 14.7 C 0 km/h
95 17-06-2020 07:50:00 14.8 C 12.29 g/m*3 14.8 C 0 km/h
96 17-06-2020 07:55:00 14.8 C 12.29 g/m*3 14.8 C 0 km/h
97 17-06-2020 08:00:00 14.8 C 12.29 g/m*3 14.8 C 0 km/h
98 17-06-2020 08:05:00 14.9 C 12.36 g/m*3 14.9 C 0 km/h
99 17-06-2020 08:10:00 14.9 C 12.36 g/m*3 14.9 C 0 km/h
100 17-06-2020 08:15:00 14.9 C 12.36 g/m*3 14.9 C 0 km/h
Sensor: Nr:Datum:Temp:Abs-Feuchte:Windchill:Wind:
Aussen-T/F 101 17-06-2020 08:20:00 14.9 C 12.36 g/m*3 14.9 C 0 km/h
102 17-06-2020 08:25:00 14.9 C 12.36 g/m*3 14.9 C 0 km/h
103 17-06-2020 08:30:00 14.9 C 12.36 g/m*3 14.9 C 0 km/h
104 17-06-2020 08:35:00 14.9 C 12.36 g/m*3 14.9 C 0 km/h
105 17-06-2020 08:40:00 14.9 C 12.36 g/m*3 14.9 C 0 km/h
106 17-06-2020 08:45:00 15 C 12.44 g/m*3 15 C 0 km/h
107 17-06-2020 08:50:00 15 C 12.44 g/m*3 15 C 0 km/h
108 17-06-2020 08:55:00 15 C 12.44 g/m*3 15 C 0 km/h
109 17-06-2020 09:00:00 15.1 C 12.51 g/m*3 15.1 C 0 km/h
110 17-06-2020 09:05:00 15.1 C 12.51 g/m*3 15.1 C 0 km/h
111 17-06-2020 09:10:00 15.2 C 12.59 g/m*3 15.2 C 0 km/h
112 17-06-2020 09:15:00 15.2 C 12.59 g/m*3 15.2 C 0 km/h
113 17-06-2020 09:20:00 15.3 C 12.67 g/m*3 15.3 C 0 km/h
114 17-06-2020 09:25:00 15.3 C 12.67 g/m*3 15.3 C 0 km/h
115 17-06-2020 09:30:00 15.4 C 12.74 g/m*3 15.4 C 0 km/h
116 17-06-2020 09:35:00 15.5 C 12.82 g/m*3 15.5 C 0 km/h
117 17-06-2020 09:40:00 15.7 C 12.98 g/m*3 15.7 C 0 km/h
118 17-06-2020 09:45:00 15.7 C 12.98 g/m*3 15.7 C 0 km/h
119 17-06-2020 09:50:00 15.8 C 13.06 g/m*3 15.8 C 0 km/h
120 17-06-2020 09:55:00 15.9 C 13.14 g/m*3 15.9 C 0 km/h
121 17-06-2020 10:00:00 15.9 C 13.14 g/m*3 15.9 C 3.2 km/h
122 17-06-2020 10:05:00 16 C 13.08 g/m*3 16 C 0 km/h
123 17-06-2020 10:10:00 16 C 13.08 g/m*3 16 C 0 km/h
124 17-06-2020 10:15:00 16.2 C 13.24 g/m*3 16.2 C 0 km/h
125 17-06-2020 10:20:00 16.4 C 13.4 g/m*3 16.4 C 0 km/h
Sensor: Nr:Datum:Temp:Abs-Feuchte:Windchill:Wind:
Aussen-T/F 126 17-06-2020 10:25:00 16.6 C 13.42 g/m*3 16.6 C 4.8 km/h
127 17-06-2020 10:30:00 16.7 C 13.5 g/m*3 16.7 C 4.8 km/h
128 17-06-2020 10:35:00 16.8 C 13.58 g/m*3 16.8 C 3.2 km/h
129 17-06-2020 10:40:00 16.9 C 13.38 g/m*3 16.9 C 1.6 km/h
130 17-06-2020 10:45:00 17.1 C 13.68 g/m*3 17.1 C 1.6 km/h
131 17-06-2020 10:50:00 17.4 C 13.93 g/m*3 17.4 C 0 km/h
132 17-06-2020 10:55:00 17.6 C 13.8 g/m*3 17.6 C 4.8 km/h
133 17-06-2020 11:00:00 17.7 C 13.88 g/m*3 17.7 C 0 km/h
134 17-06-2020 11:05:00 17.8 C 13.81 g/m*3 17.8 C 1.6 km/h
135 17-06-2020 11:10:00 18 C 13.82 g/m*3 18 C 6.4 km/h
136 17-06-2020 11:15:00 18.1 C 13.75 g/m*3 18.1 C 6.4 km/h
137 17-06-2020 11:20:00 18.2 C 13.68 g/m*3 18.2 C 4.8 km/h
138 17-06-2020 11:25:00 18.3 C 13.92 g/m*3 18.3 C 6.4 km/h
139 17-06-2020 11:30:00 18.5 C 14.08 g/m*3 18.5 C 4.8 km/h
140 17-06-2020 11:35:00 18.8 C 14.01 g/m*3 18.8 C 6.4 km/h
141 17-06-2020 11:40:00 19.1 C 14.1 g/m*3 19.1 C 6.4 km/h
142 17-06-2020 11:45:00 19.1 C 13.77 g/m*3 19.1 C 8.1 km/h
143 17-06-2020 11:50:00 19.2 C 13.69 g/m*3 19.2 C 6.4 km/h
144 17-06-2020 11:55:00 19.3 C 13.77 g/m*3 19.3 C 6.4 km/h
145 17-06-2020 12:00:00 19.6 C 13.84 g/m*3 19.6 C 6.4 km/h
146 17-06-2020 12:05:00 19.8 C 13.84 g/m*3 19.8 C 6.4 km/h
147 17-06-2020 12:10:00 20.1 C 14.08 g/m*3 20.1 C 3.2 km/h
148 17-06-2020 12:15:00 20.2 C 13.99 g/m*3 20.2 C 0 km/h
149 17-06-2020 12:20:00 20.4 C 14.33 g/m*3 20.4 C 1.6 km/h
150 17-06-2020 12:25:00 20.6 C 14.14 g/m*3 20.6 C 8.1 km/h
Sensor: Nr:Datum:Temp:Abs-Feuchte:Windchill:Wind:
Aussen-T/F 151 17-06-2020 12:30:00 20.6 C 14.14 g/m*3 20.6 C 6.4 km/h
152 17-06-2020 12:35:00 20.7 C 14.04 g/m*3 20.7 C 4.8 km/h
153 17-06-2020 12:40:00 20.8 C 14.12 g/m*3 20.8 C 4.8 km/h
154 17-06-2020 12:45:00 21 C 14.29 g/m*3 21 C 6.4 km/h
155 17-06-2020 12:50:00 21.2 C 14.27 g/m*3 21.2 C 11.3 km/h
156 17-06-2020 12:55:00 21.2 C 14.08 g/m*3 21.2 C 4.8 km/h
157 17-06-2020 13:00:00 21.3 C 14.17 g/m*3 21.3 C 4.8 km/h
158 17-06-2020 13:05:00 21.3 C 14.17 g/m*3 21.3 C 6.4 km/h
159 17-06-2020 13:10:00 21.4 C 14.06 g/m*3 21.4 C 4.8 km/h
160 17-06-2020 13:15:00 21.6 C 14.22 g/m*3 21.6 C 3.2 km/h
161 17-06-2020 13:20:00 21.7 C 14.5 g/m*3 21.7 C 9.7 km/h
162 17-06-2020 13:25:00 21.8 C 14.01 g/m*3 21.8 C 8.1 km/h
163 17-06-2020 13:30:00 21.8 C 14.01 g/m*3 21.8 C 4.8 km/h
164 17-06-2020 13:35:00 21.9 C 14.28 g/m*3 21.9 C 4.8 km/h
165 17-06-2020 13:40:00 22.1 C 14.25 g/m*3 22.1 C 4.8 km/h
166 17-06-2020 13:45:00 22.2 C 14.53 g/m*3 22.2 C 4.8 km/h
167 17-06-2020 13:50:00 22.3 C 14.41 g/m*3 22.3 C 3.2 km/h
168 17-06-2020 13:55:00 22.4 C 14.5 g/m*3 22.4 C 1.6 km/h
169 17-06-2020 14:00:00 22.4 C 14.3 g/m*3 22.4 C 6.4 km/h
170 17-06-2020 14:05:00 22.4 C 14.1 g/m*3 22.4 C 4.8 km/h
171 17-06-2020 14:10:00 22.4 C 14.1 g/m*3 22.4 C 1.6 km/h
172 17-06-2020 14:15:00 22.4 C 14.1 g/m*3 22.4 C 0 km/h
173 17-06-2020 14:20:00 22.6 C 14.26 g/m*3 22.6 C 4.8 km/h
174 17-06-2020 14:25:00 22.6 C 14.26 g/m*3 22.6 C 3.2 km/h
175 17-06-2020 14:30:00 22.7 C 14.55 g/m*3 22.7 C 1.6 km/h
Sensor: Nr:Datum:Temp:Abs-Feuchte:Windchill:Wind:
Aussen-T/F 176 17-06-2020 14:35:00 22.8 C 14.22 g/m*3 22.8 C 6.4 km/h
177 17-06-2020 14:40:00 22.9 C 14.1 g/m*3 22.9 C 3.2 km/h
178 17-06-2020 14:45:00 23.1 C 14.47 g/m*3 23.1 C 4.8 km/h
179 17-06-2020 14:50:00 23.3 C 14.22 g/m*3 23.3 C 1.6 km/h
180 17-06-2020 14:55:00 23.4 C 14.3 g/m*3 23.4 C 4.8 km/h
181 17-06-2020 15:00:00 23.7 C 14.54 g/m*3 23.7 C 4.8 km/h
182 17-06-2020 15:05:00 23.7 C 13.9 g/m*3 23.7 C 4.8 km/h
183 17-06-2020 15:10:00 23.7 C 13.9 g/m*3 23.7 C 6.4 km/h
184 17-06-2020 15:15:00 23.6 C 14.04 g/m*3 23.6 C 9.7 km/h
185 17-06-2020 15:20:00 23.4 C 14.3 g/m*3 23.4 C 3.2 km/h
186 17-06-2020 15:25:00 23.4 C 14.51 g/m*3 23.4 C 1.6 km/h
187 17-06-2020 15:30:00 23.6 C 16.38 g/m*3 23.6 C 3.2 km/h
188 17-06-2020 15:35:00 23.3 C 16.1 g/m*3 23.3 C 4.8 km/h
189 17-06-2020 15:40:00 22.9 C 15.94 g/m*3 22.9 C 4.8 km/h
190 17-06-2020 15:45:00 22.3 C 15.8 g/m*3 22.3 C 6.4 km/h
191 17-06-2020 15:50:00 21.8 C 15.73 g/m*3 21.8 C 8.1 km/h
192 17-06-2020 15:55:00 21.3 C 15.47 g/m*3 21.3 C 6.4 km/h
193 17-06-2020 16:00:00 20.9 C 15.48 g/m*3 20.9 C 6.4 km/h
194 17-06-2020 16:05:00 20.7 C 15.48 g/m*3 20.7 C 6.4 km/h
195 17-06-2020 16:10:00 20.4 C 15.57 g/m*3 20.4 C 6.4 km/h
196 17-06-2020 16:15:00 20.3 C 15.48 g/m*3 20.3 C 3.2 km/h
197 17-06-2020 16:20:00 20.3 C 15.65 g/m*3 20.3 C 3.2 km/h
198 17-06-2020 16:25:00 20.3 C 15.83 g/m*3 20.3 C 0 km/h
199 17-06-2020 16:30:00 20.3 C 15.83 g/m*3 20.3 C 0 km/h
200 17-06-2020 16:35:00 20.3 C 16 g/m*3 20.3 C 0 km/h
Sensor: Nr:Datum:Temp:Abs-Feuchte:Windchill:Wind:
Aussen-T/F 201 17-06-2020 16:40:00 20.4 C 16.28 g/m*3 20.4 C 0 km/h
202 17-06-2020 16:45:00 20.5 C 16.37 g/m*3 20.5 C 0 km/h
203 17-06-2020 16:50:00 20.7 C 16.56 g/m*3 20.7 C 1.6 km/h
204 17-06-2020 16:55:00 20.8 C 16.66 g/m*3 20.8 C 1.6 km/h
205 17-06-2020 17:00:00 20.8 C 16.66 g/m*3 20.8 C 0 km/h
206 17-06-2020 17:05:00 20.9 C 16.57 g/m*3 20.9 C 0 km/h
207 17-06-2020 17:10:00 21.1 C 16.77 g/m*3 21.1 C 0 km/h
208 17-06-2020 17:15:00 21.1 C 16.58 g/m*3 21.1 C 1.6 km/h
209 17-06-2020 17:20:00 21.2 C 16.68 g/m*3 21.2 C 0 km/h
210 17-06-2020 17:25:00 21.3 C 16.78 g/m*3 21.3 C 0 km/h
211 17-06-2020 17:30:00 21.5 C 16.97 g/m*3 21.5 C 0 km/h
212 17-06-2020 17:35:00 21.7 C 17.17 g/m*3 21.7 C 0 km/h
213 17-06-2020 17:40:00 21.9 C 17.17 g/m*3 21.9 C 0 km/h
214 17-06-2020 17:45:00 21.9 C 16.4 g/m*3 21.9 C 1.6 km/h
215 17-06-2020 17:50:00 22.2 C 15.9 g/m*3 22.2 C 3.2 km/h
216 17-06-2020 17:55:00 22.5 C 15.38 g/m*3 22.5 C 6.4 km/h
217 17-06-2020 18:00:00 22.7 C 15.15 g/m*3 22.7 C 6.4 km/h
218 17-06-2020 18:05:00 22.8 C 15.24 g/m*3 22.8 C 1.6 km/h
219 17-06-2020 18:10:00 23.2 C 15.38 g/m*3 23.2 C 4.8 km/h
220 17-06-2020 18:15:00 23.4 C 15.56 g/m*3 23.4 C 4.8 km/h
221 17-06-2020 18:20:00 23.7 C 15.4 g/m*3 23.7 C 4.8 km/h
222 17-06-2020 18:25:00 24.1 C 15.75 g/m*3 24.1 C 3.2 km/h
223 17-06-2020 18:30:00 24.2 C 14.96 g/m*3 24.2 C 4.8 km/h
224 17-06-2020 18:35:00 23.8 C 15.06 g/m*3 23.8 C 4.8 km/h
225 17-06-2020 18:40:00 23.3 C 15.05 g/m*3 23.3 C 4.8 km/h
Sensor: Nr:Datum:Temp:Abs-Feuchte:Windchill:Wind:
Aussen-T/F 226 17-06-2020 18:45:00 23.1 C 15.5 g/m*3 23.1 C 1.6 km/h
227 17-06-2020 18:50:00 23 C 16.03 g/m*3 23 C 0 km/h
228 17-06-2020 18:55:00 22.8 C 15.65 g/m*3 22.8 C 1.6 km/h
229 17-06-2020 19:00:00 22.4 C 15.09 g/m*3 22.4 C 8.1 km/h
230 17-06-2020 19:05:00 21.8 C 14.01 g/m*3 21.8 C 8.1 km/h
231 17-06-2020 19:10:00 21.2 C 13.9 g/m*3 21.2 C 11.3 km/h
232 17-06-2020 19:15:00 20.6 C 13.78 g/m*3 20.6 C 8.1 km/h
233 17-06-2020 19:20:00 20 C 13.83 g/m*3 20 C 8.1 km/h
234 17-06-2020 19:25:00 19.6 C 13.84 g/m*3 19.6 C 4.8 km/h
235 17-06-2020 19:30:00 19.1 C 13.61 g/m*3 19.1 C 0 km/h
236 17-06-2020 19:35:00 18.8 C 13.85 g/m*3 18.8 C 1.6 km/h
237 17-06-2020 19:40:00 18.5 C 13.77 g/m*3 18.5 C 0 km/h
238 17-06-2020 19:45:00 18.2 C 13.68 g/m*3 18.2 C 0 km/h
239 17-06-2020 19:50:00 17.9 C 13.59 g/m*3 17.9 C 6.4 km/h
240 17-06-2020 19:55:00 17.7 C 13.58 g/m*3 17.7 C 1.6 km/h
241 17-06-2020 20:00:00 17.6 C 13.65 g/m*3 17.6 C 1.6 km/h
242 17-06-2020 20:05:00 17.4 C 13.49 g/m*3 17.4 C 0 km/h
243 17-06-2020 20:10:00 17.4 C 13.63 g/m*3 17.4 C 0 km/h
244 17-06-2020 20:15:00 17.3 C 13.55 g/m*3 17.3 C 0 km/h
245 17-06-2020 20:20:00 17.3 C 13.55 g/m*3 17.3 C 0 km/h
246 17-06-2020 20:25:00 17.2 C 13.47 g/m*3 17.2 C 3.2 km/h
247 17-06-2020 20:30:00 17.2 C 13.47 g/m*3 17.2 C 1.6 km/h
248 17-06-2020 20:35:00 17.1 C 13.54 g/m*3 17.1 C 1.6 km/h
249 17-06-2020 20:40:00 17 C 13.46 g/m*3 17 C 1.6 km/h
250 17-06-2020 20:45:00 16.9 C 13.38 g/m*3 16.9 C 1.6 km/h
Sensor: Nr:Datum:Temp:Abs-Feuchte:Windchill:Wind:
Aussen-T/F 251 17-06-2020 20:50:00 16.9 C 13.38 g/m*3 16.9 C 1.6 km/h
252 17-06-2020 20:55:00 16.8 C 13.3 g/m*3 16.8 C 0 km/h
253 17-06-2020 21:00:00 16.8 C 13.44 g/m*3 16.8 C 3.2 km/h
254 17-06-2020 21:05:00 16.7 C 13.36 g/m*3 16.7 C 4.8 km/h
255 17-06-2020 21:10:00 16.6 C 13.14 g/m*3 16.6 C 4.8 km/h
256 17-06-2020 21:15:00 16.6 C 13.28 g/m*3 16.6 C 4.8 km/h
257 17-06-2020 21:20:00 16.5 C 13.2 g/m*3 16.5 C 4.8 km/h
258 17-06-2020 21:25:00 16.5 C 13.2 g/m*3 16.5 C 3.2 km/h
259 17-06-2020 21:30:00 16.5 C 13.2 g/m*3 16.5 C 4.8 km/h
260 17-06-2020 21:35:00 16.5 C 13.34 g/m*3 16.5 C 3.2 km/h
261 17-06-2020 21:40:00 16.5 C 13.34 g/m*3 16.5 C 3.2 km/h
262 17-06-2020 21:45:00 16.5 C 13.34 g/m*3 16.5 C 4.8 km/h
263 17-06-2020 21:50:00 16.4 C 13.26 g/m*3 16.4 C 4.8 km/h
264 17-06-2020 21:55:00 16.4 C 13.26 g/m*3 16.4 C 3.2 km/h
265 17-06-2020 22:00:00 16.4 C 13.26 g/m*3 16.4 C 1.6 km/h
266 17-06-2020 22:05:00 16.4 C 13.26 g/m*3 16.4 C 1.6 km/h
267 17-06-2020 22:10:00 16.4 C 13.26 g/m*3 16.4 C 1.6 km/h
268 17-06-2020 22:15:00 16.4 C 13.26 g/m*3 16.4 C 3.2 km/h
269 17-06-2020 22:20:00 16.3 C 13.18 g/m*3 16.3 C 0 km/h
270 17-06-2020 22:25:00 16.3 C 13.18 g/m*3 16.3 C 1.6 km/h
271 17-06-2020 22:30:00 16.2 C 13.1 g/m*3 16.2 C 0 km/h
272 17-06-2020 22:35:00 16.1 C 13.02 g/m*3 16.1 C 3.2 km/h
273 17-06-2020 22:40:00 16.1 C 13.02 g/m*3 16.1 C 1.6 km/h
274 17-06-2020 22:45:00 15.9 C 12.87 g/m*3 15.9 C 0 km/h
275 17-06-2020 22:50:00 15.9 C 12.87 g/m*3 15.9 C 1.6 km/h
Sensor: Nr:Datum:Temp:Abs-Feuchte:Windchill:Wind:
Aussen-T/F 276 17-06-2020 22:55:00 15.8 C 12.79 g/m*3 15.8 C 4.8 km/h
277 17-06-2020 23:00:00 15.8 C 12.79 g/m*3 15.8 C 8.1 km/h
278 17-06-2020 23:05:00 15.7 C 12.71 g/m*3 15.7 C 6.4 km/h
279 17-06-2020 23:10:00 15.6 C 12.63 g/m*3 15.6 C 6.4 km/h
280 17-06-2020 23:15:00 15.6 C 12.63 g/m*3 15.6 C 4.8 km/h
281 17-06-2020 23:20:00 15.6 C 12.63 g/m*3 15.6 C 8.1 km/h
282 17-06-2020 23:25:00 15.6 C 12.63 g/m*3 15.6 C 4.8 km/h
283 17-06-2020 23:30:00 15.6 C 12.63 g/m*3 15.6 C 3.2 km/h
284 17-06-2020 23:35:00 15.5 C 12.56 g/m*3 15.5 C 4.8 km/h
285 17-06-2020 23:40:00 15.4 C 12.48 g/m*3 15.4 C 1.6 km/h
286 17-06-2020 23:45:00 15.4 C 12.48 g/m*3 15.4 C 3.2 km/h
287 17-06-2020 23:50:00 15.3 C 12.41 g/m*3 15.3 C 1.6 km/h
288 17-06-2020 23:55:00 15.3 C 12.41 g/m*3 15.3 C 0 km/h
289 18-06-2020 00:00:00 15.3 C 12.41 g/m*3 15.3 C 3.2 km/h
290 18-06-2020 00:05:00 15.2 C 12.33 g/m*3 15.2 C 1.6 km/h
291 18-06-2020 00:10:00 15.2 C 12.33 g/m*3 15.2 C 3.2 km/h
292 18-06-2020 00:15:00 15.1 C 12.26 g/m*3 15.1 C 1.6 km/h
293 18-06-2020 00:20:00 15.1 C 12.39 g/m*3 15.1 C 1.6 km/h
294 18-06-2020 00:25:00 15.1 C 12.39 g/m*3 15.1 C 1.6 km/h
295 18-06-2020 00:30:00 15.1 C 12.39 g/m*3 15.1 C 0 km/h
296 18-06-2020 00:35:00 15.1 C 12.39 g/m*3 15.1 C 0 km/h
297 18-06-2020 00:40:00 15.1 C 12.39 g/m*3 15.1 C 0 km/h
298 18-06-2020 00:45:00 15.1 C 12.39 g/m*3 15.1 C 0 km/h
299 18-06-2020 00:50:00 15 C 12.31 g/m*3 15 C 0 km/h
300 18-06-2020 00:55:00 15 C 12.31 g/m*3 15 C 0 km/h
Sensor: Nr:Datum:Temp:Abs-Feuchte:Windchill:Wind:
Aussen-T/F 301 18-06-2020 01:00:00 15 C 12.31 g/m*3 15 C 0 km/h
302 18-06-2020 01:05:00 15 C 12.31 g/m*3 15 C 0 km/h
303 18-06-2020 01:10:00 15 C 12.31 g/m*3 15 C 0 km/h
304 18-06-2020 01:15:00 14.9 C 12.24 g/m*3 14.9 C 1.6 km/h
305 18-06-2020 01:20:00 14.9 C 12.24 g/m*3 14.9 C 1.6 km/h
306 18-06-2020 01:25:00 14.8 C 12.16 g/m*3 14.8 C 4.8 km/h
307 18-06-2020 01:30:00 14.7 C 11.96 g/m*3 14.7 C 6.4 km/h
308 18-06-2020 01:35:00 14.6 C 11.89 g/m*3 14.6 C 6.4 km/h
309 18-06-2020 01:40:00 14.6 C 11.89 g/m*3 14.6 C 3.2 km/h
310 18-06-2020 01:45:00 14.6 C 11.89 g/m*3 14.6 C 3.2 km/h
311 18-06-2020 01:50:00 14.6 C 12.01 g/m*3 14.6 C 3.2 km/h
312 18-06-2020 01:55:00 14.5 C 11.82 g/m*3 14.5 C 4.8 km/h
313 18-06-2020 02:00:00 14.4 C 11.74 g/m*3 14.4 C 1.6 km/h
314 18-06-2020 02:05:00 14.4 C 11.87 g/m*3 14.4 C 1.6 km/h
315 18-06-2020 02:10:00 14.4 C 11.87 g/m*3 14.4 C 0 km/h
316 18-06-2020 02:15:00 14.5 C 11.94 g/m*3 14.5 C 1.6 km/h
317 18-06-2020 02:20:00 14.4 C 11.87 g/m*3 14.4 C 3.2 km/h
318 18-06-2020 02:25:00 14.4 C 11.87 g/m*3 14.4 C 4.8 km/h
319 18-06-2020 02:30:00 14.4 C 11.87 g/m*3 14.4 C 1.6 km/h
320 18-06-2020 02:35:00 14.4 C 11.87 g/m*3 14.4 C 1.6 km/h
321 18-06-2020 02:40:00 14.5 C 11.94 g/m*3 14.5 C 6.4 km/h
322 18-06-2020 02:45:00 14.4 C 11.87 g/m*3 14.4 C 8.1 km/h
323 18-06-2020 02:50:00 14.4 C 11.87 g/m*3 14.4 C 3.2 km/h
324 18-06-2020 02:55:00 14.4 C 11.87 g/m*3 14.4 C 4.8 km/h
325 18-06-2020 03:00:00 14.4 C 11.87 g/m*3 14.4 C 4.8 km/h
Sensor: Nr:Datum:Temp:Abs-Feuchte:Windchill:Wind:
Aussen-T/F 326 18-06-2020 03:05:00 14.4 C 11.87 g/m*3 14.4 C 4.8 km/h
327 18-06-2020 03:10:00 14.4 C 11.87 g/m*3 14.4 C 6.4 km/h
328 18-06-2020 03:15:00 14.4 C 11.87 g/m*3 14.4 C 8.1 km/h
329 18-06-2020 03:20:00 14.4 C 11.87 g/m*3 14.4 C 6.4 km/h
330 18-06-2020 03:25:00 14.4 C 11.87 g/m*3 14.4 C 6.4 km/h
331 18-06-2020 03:30:00 14.4 C 11.87 g/m*3 14.4 C 4.8 km/h
332 18-06-2020 03:35:00 14.4 C 11.87 g/m*3 14.4 C 9.7 km/h
333 18-06-2020 03:40:00 14.4 C 11.87 g/m*3 14.4 C 9.7 km/h
334 18-06-2020 03:45:00 14.4 C 11.87 g/m*3 14.4 C 3.2 km/h
335 18-06-2020 03:50:00 14.4 C 11.87 g/m*3 14.4 C 8.1 km/h
336 18-06-2020 03:55:00 14.4 C 11.87 g/m*3 14.4 C 6.4 km/h
337 18-06-2020 04:00:00 14.4 C 11.87 g/m*3 14.4 C 1.6 km/h
338 18-06-2020 04:05:00 14.4 C 11.87 g/m*3 14.4 C 8.1 km/h
339 18-06-2020 04:10:00 14.3 C 11.79 g/m*3 14.3 C 4.8 km/h
340 18-06-2020 04:15:00 14.3 C 11.79 g/m*3 14.3 C 4.8 km/h
341 18-06-2020 04:20:00 14.3 C 11.79 g/m*3 14.3 C 4.8 km/h
342 18-06-2020 04:25:00 14.3 C 11.79 g/m*3 14.3 C 4.8 km/h
343 18-06-2020 04:30:00 14.3 C 11.79 g/m*3 14.3 C 3.2 km/h
344 18-06-2020 04:35:00 14.3 C 11.79 g/m*3 14.3 C 1.6 km/h
345 18-06-2020 04:40:00 14.3 C 11.79 g/m*3 14.3 C 6.4 km/h
346 18-06-2020 04:45:00 14.3 C 11.79 g/m*3 14.3 C 4.8 km/h
347 18-06-2020 04:50:00 14.2 C 11.72 g/m*3 14.2 C 1.6 km/h
348 18-06-2020 04:55:00 14.2 C 11.72 g/m*3 14.2 C 3.2 km/h
349 18-06-2020 05:00:00 14.2 C 11.72 g/m*3 14.2 C 3.2 km/h
350 18-06-2020 05:05:00 14.2 C 11.72 g/m*3 14.2 C 4.8 km/h
Sensor: Nr:Datum:Temp:Abs-Feuchte:Windchill:Wind:
Aussen-T/F 351 18-06-2020 05:10:00 14.1 C 11.65 g/m*3 14.1 C 1.6 km/h
352 18-06-2020 05:15:00 14.1 C 11.65 g/m*3 14.1 C 4.8 km/h
353 18-06-2020 05:20:00 14.1 C 11.65 g/m*3 14.1 C 1.6 km/h
354 18-06-2020 05:25:00 14.1 C 11.65 g/m*3 14.1 C 0 km/h
355 18-06-2020 05:30:00 14.1 C 11.65 g/m*3 14.1 C 0 km/h
356 18-06-2020 05:35:00 14.1 C 11.65 g/m*3 14.1 C 4.8 km/h
357 18-06-2020 05:40:00 14.1 C 11.65 g/m*3 14.1 C 3.2 km/h
358 18-06-2020 05:45:00 14.1 C 11.65 g/m*3 14.1 C 3.2 km/h
359 18-06-2020 05:50:00 14 C 11.58 g/m*3 14 C 1.6 km/h
360 18-06-2020 05:55:00 14 C 11.58 g/m*3 14 C 1.6 km/h
361 18-06-2020 06:00:00 13.9 C 11.51 g/m*3 13.9 C 1.6 km/h
362 18-06-2020 06:05:00 13.9 C 11.51 g/m*3 13.9 C 1.6 km/h
363 18-06-2020 06:10:00 13.9 C 11.51 g/m*3 13.9 C 4.8 km/h
364 18-06-2020 06:15:00 13.9 C 11.51 g/m*3 13.9 C 6.4 km/h
365 18-06-2020 06:20:00 13.9 C 11.51 g/m*3 13.9 C 6.4 km/h
366 18-06-2020 06:25:00 13.9 C 11.51 g/m*3 13.9 C 4.8 km/h
367 18-06-2020 06:30:00 13.9 C 11.51 g/m*3 13.9 C 6.4 km/h
368 18-06-2020 06:35:00 14 C 11.58 g/m*3 14 C 3.2 km/h
369 18-06-2020 06:40:00 14 C 11.58 g/m*3 14 C 1.6 km/h
370 18-06-2020 06:45:00 14.1 C 11.65 g/m*3 14.1 C 4.8 km/h
371 18-06-2020 06:50:00 14.1 C 11.65 g/m*3 14.1 C 3.2 km/h
372 18-06-2020 06:55:00 14.1 C 11.65 g/m*3 14.1 C 4.8 km/h
373 18-06-2020 07:00:00 14.1 C 11.65 g/m*3 14.1 C 3.2 km/h
374 18-06-2020 07:05:00 14.1 C 11.65 g/m*3 14.1 C 1.6 km/h
375 18-06-2020 07:10:00 14.1 C 11.65 g/m*3 14.1 C 6.4 km/h
Sensor: Nr:Datum:Temp:Abs-Feuchte:Windchill:Wind:
Aussen-T/F 376 18-06-2020 07:15:00 14.1 C 11.65 g/m*3 14.1 C 3.2 km/h
377 18-06-2020 07:20:00 14.2 C 11.72 g/m*3 14.2 C 0 km/h
378 18-06-2020 07:25:00 14.2 C 11.72 g/m*3 14.2 C 0 km/h
379 18-06-2020 07:30:00 14.3 C 11.79 g/m*3 14.3 C 1.6 km/h
380 18-06-2020 07:35:00 14.4 C 11.87 g/m*3 14.4 C 0 km/h
381 18-06-2020 07:40:00 14.6 C 12.01 g/m*3 14.6 C 3.2 km/h
382 18-06-2020 07:45:00 14.6 C 12.01 g/m*3 14.6 C 0 km/h
383 18-06-2020 07:50:00 14.7 C 12.09 g/m*3 14.7 C 1.6 km/h
384 18-06-2020 07:55:00 14.7 C 12.09 g/m*3 14.7 C 4.8 km/h
385 18-06-2020 08:00:00 14.8 C 12.16 g/m*3 14.8 C 4.8 km/h
386 18-06-2020 08:05:00 14.9 C 12.11 g/m*3 14.9 C 1.6 km/h
387 18-06-2020 08:10:00 15.1 C 12.39 g/m*3 15.1 C 3.2 km/h
388 18-06-2020 08:15:00 15.2 C 12.33 g/m*3 15.2 C 3.2 km/h
389 18-06-2020 08:20:00 15.3 C 12.28 g/m*3 15.3 C 8.1 km/h
390 18-06-2020 08:25:00 15.4 C 12.22 g/m*3 15.4 C 4.8 km/h
391 18-06-2020 08:30:00 15.4 C 12.22 g/m*3 15.4 C 8.1 km/h
392 18-06-2020 08:35:00 15.4 C 12.09 g/m*3 15.4 C 6.4 km/h
393 18-06-2020 08:40:00 15.5 C 12.16 g/m*3 15.5 C 4.8 km/h
394 18-06-2020 08:45:00 15.6 C 12.23 g/m*3 15.6 C 8.1 km/h
395 18-06-2020 08:50:00 15.6 C 12.1 g/m*3 15.6 C 6.4 km/h
396 18-06-2020 08:55:00 15.7 C 12.31 g/m*3 15.7 C 0 km/h
397 18-06-2020 09:00:00 15.8 C 12.25 g/m*3 15.8 C 4.8 km/h
398 18-06-2020 09:05:00 15.9 C 12.19 g/m*3 15.9 C 6.4 km/h
399 18-06-2020 09:10:00 16.1 C 12.47 g/m*3 16.1 C 3.2 km/h
400 18-06-2020 09:15:00 16.1 C 12.2 g/m*3 16.1 C 6.4 km/h
Sensor: Nr:Datum:Temp:Abs-Feuchte:Windchill:Wind:
Aussen-T/F 401 18-06-2020 09:20:00 16.3 C 12.49 g/m*3 16.3 C 1.6 km/h
402 18-06-2020 09:25:00 16.4 C 12.28 g/m*3 16.4 C 8.1 km/h
403 18-06-2020 09:30:00 16.5 C 12.22 g/m*3 16.5 C 9.7 km/h
404 18-06-2020 09:35:00 16.6 C 12.29 g/m*3 16.6 C 8.1 km/h
405 18-06-2020 09:40:00 16.8 C 12.3 g/m*3 16.8 C 8.1 km/h
406 18-06-2020 09:45:00 16.9 C 12.37 g/m*3 16.9 C 6.4 km/h
407 18-06-2020 09:50:00 17 C 12.3 g/m*3 17 C 6.4 km/h
408 18-06-2020 09:55:00 17.1 C 12.23 g/m*3 17.1 C 12.9 km/h
409 18-06-2020 10:00:00 17.1 C 12.23 g/m*3 17.1 C 8.1 km/h
410 18-06-2020 10:05:00 17.2 C 12.45 g/m*3 17.2 C 0 km/h
411 18-06-2020 10:10:00 17.3 C 12.23 g/m*3 17.3 C 6.4 km/h
412 18-06-2020 10:15:00 17.3 C 12.23 g/m*3 17.3 C 6.4 km/h
413 18-06-2020 10:20:00 17.6 C 12.6 g/m*3 17.6 C 6.4 km/h
414 18-06-2020 10:25:00 17.7 C 12.52 g/m*3 17.7 C 11.3 km/h
415 18-06-2020 10:30:00 17.7 C 12.37 g/m*3 17.7 C 4.8 km/h
416 18-06-2020 10:35:00 17.7 C 12.22 g/m*3 17.7 C 6.4 km/h
417 18-06-2020 10:40:00 17.8 C 12.45 g/m*3 17.8 C 8.1 km/h
418 18-06-2020 10:45:00 18 C 12.44 g/m*3 18 C 8.1 km/h
419 18-06-2020 10:50:00 18.3 C 12.66 g/m*3 18.3 C 8.1 km/h
420 18-06-2020 10:55:00 18.4 C 12.9 g/m*3 18.4 C 8.1 km/h
421 18-06-2020 11:00:00 18.4 C 12.58 g/m*3 18.4 C 8.1 km/h
422 18-06-2020 11:05:00 18.4 C 12.58 g/m*3 18.4 C 1.6 km/h
423 18-06-2020 11:10:00 18.5 C 12.66 g/m*3 18.5 C 3.2 km/h
424 18-06-2020 11:15:00 18.6 C 12.41 g/m*3 18.6 C 9.7 km/h
425 18-06-2020 11:20:00 18.7 C 12.65 g/m*3 18.7 C 3.2 km/h
Sensor: Nr:Datum:Temp:Abs-Feuchte:Windchill:Wind:
Aussen-T/F 426 18-06-2020 11:25:00 18.8 C 12.4 g/m*3 18.8 C 4.8 km/h
427 18-06-2020 11:30:00 18.9 C 12.64 g/m*3 18.9 C 6.4 km/h
428 18-06-2020 11:35:00 18.8 C 12.08 g/m*3 18.8 C 9.7 km/h
429 18-06-2020 11:40:00 18.8 C 12.72 g/m*3 18.8 C 4.8 km/h
430 18-06-2020 11:45:00 18.8 C 12.4 g/m*3 18.8 C 8.1 km/h
431 18-06-2020 11:50:00 19.1 C 12.29 g/m*3 19.1 C 9.7 km/h
432 18-06-2020 11:55:00 19.2 C 12.53 g/m*3 19.2 C 4.8 km/h
433 18-06-2020 12:00:00 19.3 C 12.44 g/m*3 19.3 C 9.7 km/h
434 18-06-2020 12:05:00 19.4 C 12.35 g/m*3 19.4 C 9.7 km/h
435 18-06-2020 12:10:00 19.6 C 12.66 g/m*3 19.6 C 6.4 km/h
436 18-06-2020 12:15:00 19.6 C 12.32 g/m*3 19.6 C 8.1 km/h
437 18-06-2020 12:20:00 19.7 C 12.23 g/m*3 19.7 C 6.4 km/h
438 18-06-2020 12:25:00 19.9 C 12.54 g/m*3 19.9 C 14.5 km/h
439 18-06-2020 12:30:00 19.9 C 12.37 g/m*3 19.9 C 9.7 km/h
440 18-06-2020 12:35:00 20 C 12.44 g/m*3 20 C 14.5 km/h
441 18-06-2020 12:40:00 19.9 C 12.2 g/m*3 19.9 C 16.1 km/h
442 18-06-2020 12:45:00 19.6 C 11.99 g/m*3 19.6 C 9.7 km/h
443 18-06-2020 12:50:00 19.7 C 12.23 g/m*3 19.7 C 9.7 km/h
444 18-06-2020 12:55:00 20 C 12.1 g/m*3 20 C 8.1 km/h
445 18-06-2020 13:00:00 20.2 C 12.06 g/m*3 20.2 C 9.7 km/h
446 18-06-2020 13:05:00 20.3 C 12.14 g/m*3 20.3 C 12.9 km/h
447 18-06-2020 13:10:00 20.3 C 12.14 g/m*3 20.3 C 12.9 km/h
448 18-06-2020 13:15:00 20.5 C 12.46 g/m*3 20.5 C 12.9 km/h
449 18-06-2020 13:20:00 20.5 C 11.74 g/m*3 20.5 C 14.5 km/h
450 18-06-2020 13:25:00 20.6 C 12.17 g/m*3 20.6 C 9.7 km/h
Sensor: Nr:Datum:Temp:Abs-Feuchte:Windchill:Wind:
Aussen-T/F 451 18-06-2020 13:30:00 20.8 C 11.77 g/m*3 20.8 C 11.3 km/h
452 18-06-2020 13:35:00 21.1 C 11.98 g/m*3 21.1 C 11.3 km/h
453 18-06-2020 13:40:00 21.2 C 11.86 g/m*3 21.2 C 17.7 km/h
454 18-06-2020 13:45:00 21.3 C 12.12 g/m*3 21.3 C 14.5 km/h
455 18-06-2020 13:50:00 21.3 C 11.74 g/m*3 21.3 C 11.3 km/h
456 18-06-2020 13:55:00 21.4 C 11.62 g/m*3 21.4 C 16.1 km/h
457 18-06-2020 14:00:00 21.6 C 11.95 g/m*3 21.6 C 14.5 km/h
458 18-06-2020 14:05:00 21.7 C 12.02 g/m*3 21.7 C 9.7 km/h
459 18-06-2020 14:10:00 21.9 C 11.96 g/m*3 21.9 C 11.3 km/h
460 18-06-2020 14:15:00 22.1 C 11.91 g/m*3 22.1 C 12.9 km/h
461 18-06-2020 14:20:00 22.2 C 11.78 g/m*3 22.2 C 11.3 km/h
462 18-06-2020 14:25:00 22.3 C 11.26 g/m*3 22.3 C 11.3 km/h
463 18-06-2020 14:30:00 22.4 C 11.52 g/m*3 22.4 C 11.3 km/h
464 18-06-2020 14:35:00 22.4 C 12.11 g/m*3 22.4 C 8.1 km/h
465 18-06-2020 14:40:00 22.4 C 12.51 g/m*3 22.4 C 8.1 km/h
466 18-06-2020 14:45:00 22.6 C 12.25 g/m*3 22.6 C 12.9 km/h
467 18-06-2020 14:50:00 22.4 C 12.51 g/m*3 22.4 C 9.7 km/h
468 18-06-2020 14:55:00 22.4 C 12.71 g/m*3 22.4 C 11.3 km/h
469 18-06-2020 15:00:00 22.8 C 12.4 g/m*3 22.8 C 11.3 km/h
470 18-06-2020 15:05:00 23.1 C 12.4 g/m*3 23.1 C 11.3 km/h
471 18-06-2020 15:10:00 23.2 C 11.64 g/m*3 23.2 C 11.3 km/h
472 18-06-2020 15:15:00 22.8 C 11.58 g/m*3 22.8 C 11.3 km/h
473 18-06-2020 15:20:00 22.9 C 11.65 g/m*3 22.9 C 6.4 km/h
474 18-06-2020 15:25:00 23.2 C 11.85 g/m*3 23.2 C 11.3 km/h
475 18-06-2020 15:30:00 23.3 C 11.92 g/m*3 23.3 C 6.4 km/h
Sensor: Nr:Datum:Temp:Abs-Feuchte:Windchill:Wind:
Aussen-T/F 476 18-06-2020 15:35:00 23.6 C 11.27 g/m*3 23.6 C 8.1 km/h
477 18-06-2020 15:40:00 24.1 C 11.38 g/m*3 24.1 C 12.9 km/h
478 18-06-2020 15:45:00 24.3 C 11.06 g/m*3 24.3 C 9.7 km/h
479 18-06-2020 15:50:00 24.4 C 11.13 g/m*3 24.4 C 12.9 km/h
480 18-06-2020 15:55:00 24.8 C 11.61 g/m*3 24.8 C 11.3 km/h
481 18-06-2020 16:00:00 25.2 C 10.48 g/m*3 25.2 C 12.9 km/h
482 18-06-2020 16:05:00 25.3 C 10.77 g/m*3 25.3 C 12.9 km/h
483 18-06-2020 16:10:00 25.1 C 11.57 g/m*3 25.1 C 11.3 km/h
484 18-06-2020 16:15:00 25.2 C 11.41 g/m*3 25.2 C 9.7 km/h
485 18-06-2020 16:20:00 25.3 C 11.47 g/m*3 25.3 C 8.1 km/h
486 18-06-2020 16:25:00 25.4 C 11.54 g/m*3 25.4 C 9.7 km/h
487 18-06-2020 16:30:00 25.2 C 11.64 g/m*3 25.2 C 14.5 km/h
488 18-06-2020 16:35:00 24.9 C 11.67 g/m*3 24.9 C 14.5 km/h
489 18-06-2020 16:40:00 24.8 C 12.29 g/m*3 24.8 C 9.7 km/h
490 18-06-2020 16:45:00 24.9 C 11.67 g/m*3 24.9 C 12.9 km/h
491 18-06-2020 16:50:00 24.9 C 11.67 g/m*3 24.9 C 11.3 km/h
492 18-06-2020 16:55:00 24.9 C 11.67 g/m*3 24.9 C 11.3 km/h
493 18-06-2020 17:00:00 25 C 11.51 g/m*3 25 C 16.1 km/h
494 18-06-2020 17:05:00 25.2 C 11.87 g/m*3 25.2 C 17.7 km/h
495 18-06-2020 17:10:00 25.3 C 11.71 g/m*3 25.3 C 11.3 km/h
496 18-06-2020 17:15:00 25.4 C 11.54 g/m*3 25.4 C 16.1 km/h
497 18-06-2020 17:20:00 25.3 C 11.24 g/m*3 25.3 C 14.5 km/h
498 18-06-2020 17:25:00 25.2 C 11.41 g/m*3 25.2 C 16.1 km/h
499 18-06-2020 17:30:00 25.1 C 11.57 g/m*3 25.1 C 16.1 km/h
500 18-06-2020 17:35:00 25.1 C 11.57 g/m*3 25.1 C 22.5 km/h
Sensor: Nr:Datum:Temp:Abs-Feuchte:Windchill:Wind:
Aussen-T/F 501 18-06-2020 17:40:00 25.1 C 10.88 g/m*3 25.1 C 19.3 km/h
502 18-06-2020 17:45:00 24.4 C 10.9 g/m*3 24.4 C 19.3 km/h
503 18-06-2020 17:50:00 23.8 C 10.76 g/m*3 23.8 C 11.3 km/h
504 18-06-2020 17:55:00 23.6 C 10.42 g/m*3 23.6 C 9.7 km/h
505 18-06-2020 18:00:00 23.7 C 10.48 g/m*3 23.7 C 14.5 km/h
506 18-06-2020 18:05:00 23.9 C 10.6 g/m*3 23.9 C 19.3 km/h
507 18-06-2020 18:10:00 23.7 C 10.69 g/m*3 23.7 C 11.3 km/h
508 18-06-2020 18:15:00 23.4 C 10.51 g/m*3 23.4 C 16.1 km/h
509 18-06-2020 18:20:00 23.9 C 11.03 g/m*3 23.9 C 11.3 km/h
510 18-06-2020 18:25:00 24.5 C 10.74 g/m*3 24.5 C 19.3 km/h
511 18-06-2020 18:30:00 24.1 C 10.28 g/m*3 24.1 C 17.7 km/h
512 18-06-2020 18:35:00 23.7 C 11.12 g/m*3 23.7 C 11.3 km/h
513 18-06-2020 18:40:00 23.5 C 10.79 g/m*3 23.5 C 17.7 km/h
514 18-06-2020 18:45:00 23.7 C 11.34 g/m*3 23.7 C 16.1 km/h
515 18-06-2020 18:50:00 23.9 C 11.25 g/m*3 23.9 C 12.9 km/h
516 18-06-2020 18:55:00 24.4 C 11.79 g/m*3 24.4 C 12.9 km/h
517 18-06-2020 19:00:00 24.8 C 11.38 g/m*3 24.8 C 12.9 km/h
518 18-06-2020 19:05:00 24.6 C 11.48 g/m*3 24.6 C 11.3 km/h
519 18-06-2020 19:10:00 24.1 C 11.16 g/m*3 24.1 C 12.9 km/h
520 18-06-2020 19:15:00 23.6 C 11.27 g/m*3 23.6 C 8.1 km/h
521 18-06-2020 19:20:00 23.4 C 11.78 g/m*3 23.4 C 9.7 km/h
522 18-06-2020 19:25:00 23.7 C 11.55 g/m*3 23.7 C 9.7 km/h
523 18-06-2020 19:30:00 23.6 C 11.48 g/m*3 23.6 C 11.3 km/h
524 18-06-2020 19:35:00 23.6 C 11.7 g/m*3 23.6 C 11.3 km/h
525 18-06-2020 19:40:00 23.8 C 11.62 g/m*3 23.8 C 11.3 km/h
Sensor: Nr:Datum:Temp:Abs-Feuchte:Windchill:Wind:
Aussen-T/F 526 18-06-2020 19:45:00 23.9 C 11.68 g/m*3 23.9 C 9.7 km/h
527 18-06-2020 19:50:00 23.8 C 11.62 g/m*3 23.8 C 9.7 km/h
528 18-06-2020 19:55:00 23.8 C 11.83 g/m*3 23.8 C 11.3 km/h
529 18-06-2020 20:00:00 23.8 C 11.19 g/m*3 23.8 C 14.5 km/h
530 18-06-2020 20:05:00 23.7 C 11.12 g/m*3 23.7 C 11.3 km/h
531 18-06-2020 20:10:00 23.6 C 11.27 g/m*3 23.6 C 11.3 km/h
532 18-06-2020 20:15:00 23.4 C 11.14 g/m*3 23.4 C 9.7 km/h
533 18-06-2020 20:20:00 23.3 C 11.5 g/m*3 23.3 C 11.3 km/h
534 18-06-2020 20:25:00 23.3 C 11.5 g/m*3 23.3 C 11.3 km/h
535 18-06-2020 20:30:00 23.2 C 11.23 g/m*3 23.2 C 6.4 km/h
536 18-06-2020 20:35:00 23 C 11.3 g/m*3 23 C 8.1 km/h
537 18-06-2020 20:40:00 22.9 C 11.44 g/m*3 22.9 C 11.3 km/h
538 18-06-2020 20:45:00 22.8 C 11.38 g/m*3 22.8 C 8.1 km/h
539 18-06-2020 20:50:00 22.8 C 11.58 g/m*3 22.8 C 9.7 km/h
540 18-06-2020 20:55:00 22.6 C 11.65 g/m*3 22.6 C 6.4 km/h
541 18-06-2020 21:00:00 22.3 C 11.65 g/m*3 22.3 C 9.7 km/h
542 18-06-2020 21:05:00 22.1 C 12.1 g/m*3 22.1 C 0 km/h
543 18-06-2020 21:10:00 21.9 C 12.93 g/m*3 21.9 C 0 km/h
544 18-06-2020 21:15:00 21.7 C 12.97 g/m*3 21.7 C 0 km/h
545 18-06-2020 21:20:00 21.4 C 12.94 g/m*3 21.4 C 0 km/h
546 18-06-2020 21:25:00 21 C 12.82 g/m*3 21 C 6.4 km/h
547 18-06-2020 21:30:00 20.6 C 12.53 g/m*3 20.6 C 6.4 km/h
548 18-06-2020 21:35:00 20.1 C 12.52 g/m*3 20.1 C 0 km/h
549 18-06-2020 21:40:00 19.7 C 12.4 g/m*3 19.7 C 6.4 km/h
550 18-06-2020 21:45:00 19.3 C 12.27 g/m*3 19.3 C 4.8 km/h
Sensor: Nr:Datum:Temp:Abs-Feuchte:Windchill:Wind:
Aussen-T/F 551 18-06-2020 21:50:00 18.9 C 11.99 g/m*3 18.9 C 6.4 km/h
552 18-06-2020 21:55:00 18.6 C 12.1 g/m*3 18.6 C 6.4 km/h
553 18-06-2020 22:00:00 18.3 C 12.04 g/m*3 18.3 C 4.8 km/h
554 18-06-2020 22:05:00 18.1 C 11.9 g/m*3 18.1 C 4.8 km/h
555 18-06-2020 22:10:00 17.8 C 11.84 g/m*3 17.8 C 6.4 km/h
556 18-06-2020 22:15:00 17.6 C 11.85 g/m*3 17.6 C 6.4 km/h
557 18-06-2020 22:20:00 17.3 C 11.79 g/m*3 17.3 C 6.4 km/h
558 18-06-2020 22:25:00 17.2 C 11.72 g/m*3 17.2 C 4.8 km/h
559 18-06-2020 22:30:00 17 C 11.72 g/m*3 17 C 4.8 km/h
560 18-06-2020 22:35:00 16.9 C 11.79 g/m*3 16.9 C 4.8 km/h
561 18-06-2020 22:40:00 16.7 C 11.65 g/m*3 16.7 C 4.8 km/h
562 18-06-2020 22:45:00 16.7 C 11.8 g/m*3 16.7 C 4.8 km/h
563 18-06-2020 22:50:00 16.5 C 11.65 g/m*3 16.5 C 4.8 km/h
564 18-06-2020 22:55:00 16.4 C 11.72 g/m*3 16.4 C 3.2 km/h
565 18-06-2020 23:00:00 16.3 C 11.65 g/m*3 16.3 C 0 km/h
566 18-06-2020 23:05:00 16.2 C 11.72 g/m*3 16.2 C 0 km/h
567 18-06-2020 23:10:00 16.1 C 11.65 g/m*3 16.1 C 1.6 km/h
568 18-06-2020 23:15:00 15.9 C 11.65 g/m*3 15.9 C 0 km/h
569 18-06-2020 23:20:00 15.8 C 11.58 g/m*3 15.8 C 0 km/h
570 18-06-2020 23:25:00 15.8 C 11.58 g/m*3 15.8 C 0 km/h
571 18-06-2020 23:30:00 15.7 C 11.51 g/m*3 15.7 C 0 km/h
572 18-06-2020 23:35:00 15.6 C 11.57 g/m*3 15.6 C 0 km/h
573 18-06-2020 23:40:00 15.5 C 11.5 g/m*3 15.5 C 3.2 km/h
574 18-06-2020 23:45:00 15.4 C 11.43 g/m*3 15.4 C 1.6 km/h
575 18-06-2020 23:50:00 15.3 C 11.36 g/m*3 15.3 C 0 km/h
Sensor: Nr:Datum:Temp:Abs-Feuchte:Windchill:Wind:
Aussen-T/F 576 18-06-2020 23:55:00 15.2 C 11.42 g/m*3 15.2 C 4.8 km/h
577 19-06-2020 00:00:00 15.2 C 11.42 g/m*3 15.2 C 0 km/h
578 19-06-2020 00:05:00 15.2 C 11.42 g/m*3 15.2 C 1.6 km/h
579 19-06-2020 00:10:00 15.2 C 11.42 g/m*3 15.2 C 1.6 km/h
580 19-06-2020 00:15:00 15.1 C 11.35 g/m*3 15.1 C 1.6 km/h
581 19-06-2020 00:20:00 15.1 C 11.35 g/m*3 15.1 C 0 km/h
582 19-06-2020 00:25:00 15 C 11.28 g/m*3 15 C 0 km/h
583 19-06-2020 00:30:00 15.1 C 11.48 g/m*3 15.1 C 4.8 km/h
584 19-06-2020 00:35:00 15.2 C 11.55 g/m*3 15.2 C 3.2 km/h
585 19-06-2020 00:40:00 15.3 C 11.62 g/m*3 15.3 C 8.1 km/h
586 19-06-2020 00:45:00 15.4 C 11.69 g/m*3 15.4 C 1.6 km/h
587 19-06-2020 00:50:00 15.4 C 11.69 g/m*3 15.4 C 0 km/h
588 19-06-2020 00:55:00 15.4 C 11.69 g/m*3 15.4 C 0 km/h
589 19-06-2020 01:00:00 15.4 C 11.56 g/m*3 15.4 C 1.6 km/h
590 19-06-2020 01:05:00 15.3 C 11.49 g/m*3 15.3 C 0 km/h
591 19-06-2020 01:10:00 15.2 C 11.42 g/m*3 15.2 C 0 km/h
592 19-06-2020 01:15:00 15.1 C 11.35 g/m*3 15.1 C 0 km/h
593 19-06-2020 01:20:00 14.8 C 11.15 g/m*3 14.8 C 0 km/h
594 19-06-2020 01:25:00 14.7 C 11.08 g/m*3 14.7 C 0 km/h
595 19-06-2020 01:30:00 14.5 C 11.07 g/m*3 14.5 C 0 km/h
596 19-06-2020 01:35:00 14.4 C 11 g/m*3 14.4 C 0 km/h
597 19-06-2020 01:40:00 14.3 C 11.06 g/m*3 14.3 C 0 km/h
598 19-06-2020 01:45:00 14.2 C 10.99 g/m*3 14.2 C 0 km/h
599 19-06-2020 01:50:00 14.2 C 10.99 g/m*3 14.2 C 0 km/h
600 19-06-2020 01:55:00 14.1 C 10.92 g/m*3 14.1 C 1.6 km/h
Sensor: Nr:Datum:Temp:Abs-Feuchte:Windchill:Wind:
Aussen-T/F 601 19-06-2020 02:00:00 14 C 10.98 g/m*3 14 C 0 km/h
602 19-06-2020 02:05:00 13.9 C 10.91 g/m*3 13.9 C 0 km/h
603 19-06-2020 02:10:00 13.8 C 10.84 g/m*3 13.8 C 0 km/h
604 19-06-2020 02:15:00 13.7 C 10.78 g/m*3 13.7 C 0 km/h
605 19-06-2020 02:20:00 13.6 C 10.71 g/m*3 13.6 C 0 km/h
606 19-06-2020 02:25:00 13.5 C 10.64 g/m*3 13.5 C 0 km/h
607 19-06-2020 02:30:00 13.4 C 10.69 g/m*3 13.4 C 0 km/h
608 19-06-2020 02:35:00 13.3 C 10.63 g/m*3 13.3 C 0 km/h
609 19-06-2020 02:40:00 13.3 C 10.63 g/m*3 13.3 C 1.6 km/h
610 19-06-2020 02:45:00 13.3 C 10.63 g/m*3 13.3 C 1.6 km/h
611 19-06-2020 02:50:00 13.3 C 10.63 g/m*3 13.3 C 3.2 km/h
612 19-06-2020 02:55:00 13.2 C 10.68 g/m*3 13.2 C 0 km/h
613 19-06-2020 03:00:00 13.2 C 10.68 g/m*3 13.2 C 1.6 km/h
614 19-06-2020 03:05:00 13.2 C 10.68 g/m*3 13.2 C 3.2 km/h
615 19-06-2020 03:10:00 13.1 C 10.61 g/m*3 13.1 C 0 km/h
616 19-06-2020 03:15:00 13.1 C 10.61 g/m*3 13.1 C 0 km/h
617 19-06-2020 03:20:00 13 C 10.55 g/m*3 13 C 0 km/h
618 19-06-2020 03:25:00 12.9 C 10.48 g/m*3 12.9 C 0 km/h
619 19-06-2020 03:30:00 12.8 C 10.42 g/m*3 12.8 C 0 km/h
620 19-06-2020 03:35:00 12.7 C 10.35 g/m*3 12.7 C 0 km/h
621 19-06-2020 03:40:00 12.7 C 10.35 g/m*3 12.7 C 0 km/h
622 19-06-2020 03:45:00 12.6 C 10.29 g/m*3 12.6 C 0 km/h
623 19-06-2020 03:50:00 12.6 C 10.29 g/m*3 12.6 C 0 km/h
624 19-06-2020 03:55:00 12.6 C 10.29 g/m*3 12.6 C 0 km/h
625 19-06-2020 04:00:00 12.4 C 10.16 g/m*3 12.4 C 0 km/h
Sensor: Nr:Datum:Temp:Abs-Feuchte:Windchill:Wind:
Aussen-T/F 626 19-06-2020 04:05:00 12.4 C 10.27 g/m*3 12.4 C 1.6 km/h
627 19-06-2020 04:10:00 12.5 C 10.33 g/m*3 12.5 C 1.6 km/h
628 19-06-2020 04:15:00 12.5 C 10.33 g/m*3 12.5 C 1.6 km/h
629 19-06-2020 04:20:00 12.4 C 10.27 g/m*3 12.4 C 1.6 km/h
630 19-06-2020 04:25:00 12.4 C 10.27 g/m*3 12.4 C 0 km/h
631 19-06-2020 04:30:00 12.3 C 10.21 g/m*3 12.3 C 0 km/h
632 19-06-2020 04:35:00 12.3 C 10.21 g/m*3 12.3 C 1.6 km/h
633 19-06-2020 04:40:00 12.2 C 10.14 g/m*3 12.2 C 0 km/h
634 19-06-2020 04:45:00 12.2 C 10.14 g/m*3 12.2 C 3.2 km/h
635 19-06-2020 04:50:00 12.2 C 10.14 g/m*3 12.2 C 3.2 km/h
636 19-06-2020 04:55:00 12.2 C 10.14 g/m*3 12.2 C 1.6 km/h
637 19-06-2020 05:00:00 12.2 C 10.14 g/m*3 12.2 C 0 km/h
638 19-06-2020 05:05:00 12.2 C 10.25 g/m*3 12.2 C 3.2 km/h
639 19-06-2020 05:10:00 12.4 C 10.38 g/m*3 12.4 C 6.4 km/h
640 19-06-2020 05:15:00 12.4 C 10.38 g/m*3 12.4 C 0 km/h
641 19-06-2020 05:20:00 12.3 C 10.21 g/m*3 12.3 C 1.6 km/h
642 19-06-2020 05:25:00 12.2 C 10.14 g/m*3 12.2 C 0 km/h
643 19-06-2020 05:30:00 12.2 C 10.14 g/m*3 12.2 C 0 km/h
644 19-06-2020 05:35:00 12.1 C 10.19 g/m*3 12.1 C 0 km/h
645 19-06-2020 05:40:00 12.1 C 10.19 g/m*3 12.1 C 0 km/h
646 19-06-2020 05:45:00 12.2 C 10.25 g/m*3 12.2 C 0 km/h
647 19-06-2020 05:50:00 12.2 C 10.25 g/m*3 12.2 C 0 km/h
648 19-06-2020 05:55:00 12.2 C 10.25 g/m*3 12.2 C 1.6 km/h
649 19-06-2020 06:00:00 12.3 C 10.32 g/m*3 12.3 C 0 km/h
650 19-06-2020 06:05:00 12.3 C 10.32 g/m*3 12.3 C 0 km/h
Sensor: Nr:Datum:Temp:Abs-Feuchte:Windchill:Wind:
Aussen-T/F 651 19-06-2020 06:10:00 12.4 C 10.38 g/m*3 12.4 C 0 km/h
652 19-06-2020 06:15:00 12.4 C 10.38 g/m*3 12.4 C 0 km/h
653 19-06-2020 06:20:00 12.4 C 10.38 g/m*3 12.4 C 0 km/h
654 19-06-2020 06:25:00 12.5 C 10.44 g/m*3 12.5 C 0 km/h
655 19-06-2020 06:30:00 12.6 C 10.51 g/m*3 12.6 C 0 km/h
656 19-06-2020 06:35:00 12.7 C 10.58 g/m*3 12.7 C 3.2 km/h
657 19-06-2020 06:40:00 12.7 C 10.58 g/m*3 12.7 C 1.6 km/h
658 19-06-2020 06:45:00 12.8 C 10.64 g/m*3 12.8 C 0 km/h
659 19-06-2020 06:50:00 12.9 C 10.71 g/m*3 12.9 C 3.2 km/h
660 19-06-2020 06:55:00 12.9 C 10.71 g/m*3 12.9 C 0 km/h
661 19-06-2020 07:00:00 13 C 10.77 g/m*3 13 C 3.2 km/h
662 19-06-2020 07:05:00 13.1 C 10.84 g/m*3 13.1 C 1.6 km/h
663 19-06-2020 07:10:00 13.2 C 10.91 g/m*3 13.2 C 0 km/h
664 19-06-2020 07:15:00 13.3 C 10.98 g/m*3 13.3 C 0 km/h
665 19-06-2020 07:20:00 13.4 C 11.04 g/m*3 13.4 C 0 km/h
666 19-06-2020 07:25:00 13.5 C 11.11 g/m*3 13.5 C 0 km/h
667 19-06-2020 07:30:00 13.6 C 11.18 g/m*3 13.6 C 0 km/h
668 19-06-2020 07:35:00 13.8 C 11.32 g/m*3 13.8 C 0 km/h
669 19-06-2020 07:40:00 13.9 C 11.39 g/m*3 13.9 C 0 km/h
670 19-06-2020 07:45:00 14.1 C 11.53 g/m*3 14.1 C 0 km/h
671 19-06-2020 07:50:00 14.3 C 11.67 g/m*3 14.3 C 1.6 km/h
672 19-06-2020 07:55:00 14.5 C 11.82 g/m*3 14.5 C 0 km/h
673 19-06-2020 08:00:00 14.6 C 11.76 g/m*3 14.6 C 0 km/h
674 19-06-2020 08:05:00 14.8 C 11.91 g/m*3 14.8 C 1.6 km/h
675 19-06-2020 08:10:00 14.9 C 11.85 g/m*3 14.9 C 9.7 km/h
Sensor: Nr:Datum:Temp:Abs-Feuchte:Windchill:Wind:
Aussen-T/F 676 19-06-2020 08:15:00 15.2 C 11.81 g/m*3 15.2 C 9.7 km/h
677 19-06-2020 08:20:00 15.4 C 11.82 g/m*3 15.4 C 6.4 km/h
678 19-06-2020 08:25:00 15.6 C 11.7 g/m*3 15.6 C 9.7 km/h
679 19-06-2020 08:30:00 15.9 C 11.78 g/m*3 15.9 C 11.3 km/h
680 19-06-2020 08:35:00 16.1 C 11.79 g/m*3 16.1 C 8.1 km/h
681 19-06-2020 08:40:00 16.3 C 11.79 g/m*3 16.3 C 9.7 km/h
682 19-06-2020 08:45:00 16.6 C 11.87 g/m*3 16.6 C 12.9 km/h
683 19-06-2020 08:50:00 16.7 C 11.8 g/m*3 16.7 C 11.3 km/h
684 19-06-2020 08:55:00 16.9 C 11.94 g/m*3 16.9 C 11.3 km/h
685 19-06-2020 09:00:00 17.1 C 11.94 g/m*3 17.1 C 11.3 km/h
686 19-06-2020 09:05:00 17.2 C 11.86 g/m*3 17.2 C 11.3 km/h
687 19-06-2020 09:10:00 17.3 C 11.79 g/m*3 17.3 C 8.1 km/h
688 19-06-2020 09:15:00 17.3 C 11.79 g/m*3 17.3 C 9.7 km/h
689 19-06-2020 09:20:00 17.3 C 11.79 g/m*3 17.3 C 6.4 km/h
690 19-06-2020 09:25:00 17.4 C 11.86 g/m*3 17.4 C 12.9 km/h
691 19-06-2020 09:30:00 17.5 C 11.78 g/m*3 17.5 C 11.3 km/h
692 19-06-2020 09:35:00 17.6 C 11.85 g/m*3 17.6 C 11.3 km/h
693 19-06-2020 09:40:00 17.8 C 11.99 g/m*3 17.8 C 11.3 km/h
694 19-06-2020 09:45:00 17.9 C 12.06 g/m*3 17.9 C 4.8 km/h
695 19-06-2020 09:50:00 18 C 12.13 g/m*3 18 C 9.7 km/h
696 19-06-2020 09:55:00 18.2 C 12.12 g/m*3 18.2 C 9.7 km/h
697 19-06-2020 10:00:00 18.3 C 12.2 g/m*3 18.3 C 8.1 km/h
698 19-06-2020 10:05:00 18.3 C 12.2 g/m*3 18.3 C 8.1 km/h
699 19-06-2020 10:10:00 18.4 C 12.11 g/m*3 18.4 C 6.4 km/h
700 19-06-2020 10:15:00 18.6 C 12.41 g/m*3 18.6 C 6.4 km/h
Sensor: Nr:Datum:Temp:Abs-Feuchte:Windchill:Wind:
Aussen-T/F 701 19-06-2020 10:20:00 18.8 C 12.4 g/m*3 18.8 C 6.4 km/h
702 19-06-2020 10:25:00 19.1 C 12.46 g/m*3 19.1 C 3.2 km/h
703 19-06-2020 10:30:00 19.4 C 12.51 g/m*3 19.4 C 3.2 km/h
704 19-06-2020 10:35:00 19.5 C 12.42 g/m*3 19.5 C 6.4 km/h
705 19-06-2020 10:40:00 19.7 C 12.4 g/m*3 19.7 C 6.4 km/h
706 19-06-2020 10:45:00 19.8 C 12.3 g/m*3 19.8 C 6.4 km/h
707 19-06-2020 10:50:00 19.9 C 12.37 g/m*3 19.9 C 3.2 km/h
708 19-06-2020 10:55:00 20.1 C 12.34 g/m*3 20.1 C 4.8 km/h
709 19-06-2020 11:00:00 20.2 C 12.41 g/m*3 20.2 C 6.4 km/h
710 19-06-2020 11:05:00 20.4 C 12.56 g/m*3 20.4 C 4.8 km/h
711 19-06-2020 11:10:00 20.6 C 12.17 g/m*3 20.6 C 9.7 km/h
712 19-06-2020 11:15:00 20.7 C 12.24 g/m*3 20.7 C 8.1 km/h
713 19-06-2020 11:20:00 20.8 C 12.13 g/m*3 20.8 C 11.3 km/h
714 19-06-2020 11:25:00 20.9 C 11.84 g/m*3 20.9 C 11.3 km/h
715 19-06-2020 11:30:00 20.9 C 12.02 g/m*3 20.9 C 9.7 km/h
716 19-06-2020 11:35:00 21 C 12.09 g/m*3 21 C 11.3 km/h
717 19-06-2020 11:40:00 21.1 C 12.53 g/m*3 21.1 C 11.3 km/h
718 19-06-2020 11:45:00 21.1 C 11.98 g/m*3 21.1 C 6.4 km/h
719 19-06-2020 11:50:00 21.2 C 11.68 g/m*3 21.2 C 14.5 km/h
720 19-06-2020 11:55:00 21.3 C 11.74 g/m*3 21.3 C 14.5 km/h
721 19-06-2020 12:00:00 21.4 C 12 g/m*3 21.4 C 9.7 km/h
722 19-06-2020 12:05:00 21.6 C 11.76 g/m*3 21.6 C 11.3 km/h
723 19-06-2020 12:10:00 21.7 C 11.83 g/m*3 21.7 C 14.5 km/h
724 19-06-2020 12:15:00 21.8 C 11.7 g/m*3 21.8 C 11.3 km/h
725 19-06-2020 12:20:00 21.9 C 12.16 g/m*3 21.9 C 17.7 km/h
Sensor: Nr:Datum:Temp:Abs-Feuchte:Windchill:Wind:
Aussen-T/F 726 19-06-2020 12:25:00 22.1 C 11.91 g/m*3 22.1 C 17.7 km/h
727 19-06-2020 12:30:00 22.1 C 11.71 g/m*3 22.1 C 12.9 km/h
728 19-06-2020 12:35:00 22.2 C 11.98 g/m*3 22.2 C 9.7 km/h
729 19-06-2020 12:40:00 22.2 C 11.98 g/m*3 22.2 C 11.3 km/h
730 19-06-2020 12:45:00 22.1 C 11.91 g/m*3 22.1 C 9.7 km/h
731 19-06-2020 12:50:00 22 C 12.23 g/m*3 22 C 9.7 km/h
732 19-06-2020 12:55:00 21.8 C 12.09 g/m*3 21.8 C 8.1 km/h
733 19-06-2020 13:00:00 21.6 C 11.95 g/m*3 21.6 C 9.7 km/h
734 19-06-2020 13:05:00 21.4 C 12.19 g/m*3 21.4 C 9.7 km/h
735 19-06-2020 13:10:00 21.3 C 12.3 g/m*3 21.3 C 6.4 km/h
736 19-06-2020 13:15:00 21.2 C 12.05 g/m*3 21.2 C 4.8 km/h
737 19-06-2020 13:20:00 21.2 C 12.42 g/m*3 21.2 C 0 km/h
738 19-06-2020 13:25:00 21.3 C 12.12 g/m*3 21.3 C 8.1 km/h
739 19-06-2020 13:30:00 21.4 C 12.19 g/m*3 21.4 C 8.1 km/h
740 19-06-2020 13:35:00 21.6 C 11.95 g/m*3 21.6 C 11.3 km/h
741 19-06-2020 13:40:00 21.7 C 12.21 g/m*3 21.7 C 6.4 km/h
742 19-06-2020 13:45:00 21.8 C 12.28 g/m*3 21.8 C 6.4 km/h
743 19-06-2020 13:50:00 21.8 C 12.09 g/m*3 21.8 C 4.8 km/h
744 19-06-2020 13:55:00 21.8 C 11.9 g/m*3 21.8 C 0 km/h
745 19-06-2020 14:00:00 22.1 C 12.49 g/m*3 22.1 C 0 km/h
746 19-06-2020 14:05:00 22.4 C 12.11 g/m*3 22.4 C 6.4 km/h
747 19-06-2020 14:10:00 22.5 C 12.18 g/m*3 22.5 C 4.8 km/h
748 19-06-2020 14:15:00 22.4 C 12.11 g/m*3 22.4 C 6.4 km/h
749 19-06-2020 14:20:00 22.3 C 11.85 g/m*3 22.3 C 0 km/h
750 19-06-2020 14:25:00 22.3 C 11.85 g/m*3 22.3 C 4.8 km/h
Sensor: Nr:Datum:Temp:Abs-Feuchte:Windchill:Wind:
Aussen-T/F 751 19-06-2020 14:30:00 22.4 C 11.32 g/m*3 22.4 C 16.1 km/h
752 19-06-2020 14:35:00 22.4 C 11.32 g/m*3 22.4 C 16.1 km/h
753 19-06-2020 14:40:00 22.3 C 11.26 g/m*3 22.3 C 16.1 km/h
754 19-06-2020 14:45:00 22.2 C 10.8 g/m*3 22.2 C 11.3 km/h
755 19-06-2020 14:50:00 22.3 C 11.06 g/m*3 22.3 C 8.1 km/h
756 19-06-2020 14:55:00 22.5 C 10.59 g/m*3 22.5 C 14.5 km/h
757 19-06-2020 15:00:00 22.6 C 10.85 g/m*3 22.6 C 11.3 km/h
758 19-06-2020 15:05:00 22.8 C 11.58 g/m*3 22.8 C 3.2 km/h
759 19-06-2020 15:10:00 22.9 C 11.04 g/m*3 22.9 C 14.5 km/h
760 19-06-2020 15:15:00 23.3 C 11.5 g/m*3 23.3 C 16.1 km/h
761 19-06-2020 15:20:00 23.4 C 11.14 g/m*3 23.4 C 11.3 km/h
762 19-06-2020 15:25:00 23.4 C 11.14 g/m*3 23.4 C 9.7 km/h
763 19-06-2020 15:30:00 23.3 C 11.08 g/m*3 23.3 C 8.1 km/h
764 19-06-2020 15:35:00 23.1 C 10.96 g/m*3 23.1 C 14.5 km/h
765 19-06-2020 15:40:00 22.4 C 11.12 g/m*3 22.4 C 19.3 km/h
766 19-06-2020 15:45:00 21.3 C 11.74 g/m*3 21.3 C 27.4 km/h
767 19-06-2020 15:50:00 19.8 C 11.96 g/m*3 19.8 C 22.5 km/h
768 19-06-2020 15:55:00 18.9 C 12.31 g/m*3 18.9 C 9.7 km/h
769 19-06-2020 16:00:00 18.3 C 12.66 g/m*3 18.3 C 6.4 km/h
770 19-06-2020 16:05:00 17.8 C 12.6 g/m*3 17.8 C 3.2 km/h
771 19-06-2020 16:10:00 17.4 C 12.75 g/m*3 17.4 C 6.4 km/h
772 19-06-2020 16:15:00 17.1 C 12.81 g/m*3 17.1 C 9.7 km/h
773 19-06-2020 16:20:00 16.8 C 12.58 g/m*3 16.8 C 11.3 km/h
774 19-06-2020 16:25:00 16.3 C 12.35 g/m*3 16.3 C 12.9 km/h
775 19-06-2020 16:30:00 16.2 C 12.41 g/m*3 16.2 C 8.1 km/h
Sensor: Nr:Datum:Temp:Abs-Feuchte:Windchill:Wind:
Aussen-T/F 776 19-06-2020 16:35:00 15.9 C 12.19 g/m*3 15.9 C 12.9 km/h
777 19-06-2020 16:40:00 15.7 C 12.18 g/m*3 15.7 C 12.9 km/h
778 19-06-2020 16:45:00 15.4 C 12.09 g/m*3 15.4 C 12.9 km/h
779 19-06-2020 16:50:00 15.4 C 12.22 g/m*3 15.4 C 6.4 km/h
780 19-06-2020 16:55:00 15.5 C 12.29 g/m*3 15.5 C 9.7 km/h
781 19-06-2020 17:00:00 15.7 C 12.58 g/m*3 15.7 C 12.9 km/h
782 19-06-2020 17:05:00 15.7 C 12.58 g/m*3 15.7 C 11.3 km/h
783 19-06-2020 17:10:00 15.8 C 12.65 g/m*3 15.8 C 16.1 km/h
784 19-06-2020 17:15:00 15.8 C 12.65 g/m*3 15.8 C 12.9 km/h
785 19-06-2020 17:20:00 15.8 C 12.65 g/m*3 15.8 C 12.9 km/h
786 19-06-2020 17:25:00 15.8 C 12.65 g/m*3 15.8 C 16.1 km/h
787 19-06-2020 17:30:00 15.9 C 12.87 g/m*3 15.9 C 16.1 km/h
788 19-06-2020 17:35:00 16.1 C 13.02 g/m*3 16.1 C 8.1 km/h
789 19-06-2020 17:40:00 16.3 C 13.18 g/m*3 16.3 C 8.1 km/h
790 19-06-2020 17:45:00 16.9 C 13.81 g/m*3 16.9 C 3.2 km/h
791 19-06-2020 17:50:00 17.9 C 14.81 g/m*3 17.9 C 3.2 km/h
792 19-06-2020 17:55:00 17.8 C 14.42 g/m*3 17.8 C 6.4 km/h
793 19-06-2020 18:00:00 17.7 C 14.18 g/m*3 17.7 C 4.8 km/h
794 19-06-2020 18:05:00 17.6 C 13.95 g/m*3 17.6 C 4.8 km/h
795 19-06-2020 18:10:00 17.4 C 13.63 g/m*3 17.4 C 8.1 km/h
796 19-06-2020 18:15:00 17.3 C 13.55 g/m*3 17.3 C 4.8 km/h
797 19-06-2020 18:20:00 17.4 C 13.78 g/m*3 17.4 C 0 km/h
798 19-06-2020 18:25:00 17.6 C 14.1 g/m*3 17.6 C 3.2 km/h
799 19-06-2020 18:30:00 18.1 C 14.68 g/m*3 18.1 C 1.6 km/h
800 19-06-2020 18:35:00 18.2 C 14.3 g/m*3 18.2 C 4.8 km/h
Sensor: Nr:Datum:Temp:Abs-Feuchte:Windchill:Wind:
Aussen-T/F 801 19-06-2020 18:40:00 18.5 C 14.71 g/m*3 18.5 C 3.2 km/h
802 19-06-2020 18:45:00 19.1 C 15.41 g/m*3 19.1 C 6.4 km/h
803 19-06-2020 18:50:00 19.2 C 14.51 g/m*3 19.2 C 4.8 km/h
804 19-06-2020 18:55:00 19.3 C 13.77 g/m*3 19.3 C 6.4 km/h
805 19-06-2020 19:00:00 19.3 C 13.6 g/m*3 19.3 C 4.8 km/h
806 19-06-2020 19:05:00 19.3 C 14.26 g/m*3 19.3 C 0 km/h
807 19-06-2020 19:10:00 19.4 C 14.68 g/m*3 19.4 C 1.6 km/h
808 19-06-2020 19:15:00 19.3 C 14.6 g/m*3 19.3 C 3.2 km/h
809 19-06-2020 19:20:00 19.3 C 14.76 g/m*3 19.3 C 4.8 km/h
810 19-06-2020 19:25:00 19.1 C 14.43 g/m*3 19.1 C 1.6 km/h
811 19-06-2020 19:30:00 18.9 C 14.26 g/m*3 18.9 C 1.6 km/h
812 19-06-2020 19:35:00 18.6 C 14.01 g/m*3 18.6 C 1.6 km/h
813 19-06-2020 19:40:00 18.4 C 14 g/m*3 18.4 C 4.8 km/h
814 19-06-2020 19:45:00 18.3 C 14.07 g/m*3 18.3 C 4.8 km/h
815 19-06-2020 19:50:00 18.4 C 14.47 g/m*3 18.4 C 4.8 km/h
816 19-06-2020 19:55:00 18.6 C 14.64 g/m*3 18.6 C 3.2 km/h
817 19-06-2020 20:00:00 18.8 C 14.98 g/m*3 18.8 C 3.2 km/h
818 19-06-2020 20:05:00 19.1 C 15.08 g/m*3 19.1 C 0 km/h
819 19-06-2020 20:10:00 18.9 C 14.58 g/m*3 18.9 C 0 km/h
820 19-06-2020 20:15:00 18.7 C 14.25 g/m*3 18.7 C 6.4 km/h
821 19-06-2020 20:20:00 18.3 C 13.76 g/m*3 18.3 C 8.1 km/h
822 19-06-2020 20:25:00 18.1 C 13.91 g/m*3 18.1 C 8.1 km/h
823 19-06-2020 20:30:00 17.9 C 13.74 g/m*3 17.9 C 8.1 km/h
824 19-06-2020 20:35:00 17.9 C 13.89 g/m*3 17.9 C 8.1 km/h
825 19-06-2020 20:40:00 17.8 C 13.81 g/m*3 17.8 C 8.1 km/h
Sensor: Nr:Datum:Temp:Abs-Feuchte:Windchill:Wind:
Aussen-T/F 826 19-06-2020 20:45:00 17.7 C 13.58 g/m*3 17.7 C 6.4 km/h
827 19-06-2020 20:50:00 17.5 C 13.42 g/m*3 17.5 C 8.1 km/h
828 19-06-2020 20:55:00 17.3 C 13.26 g/m*3 17.3 C 8.1 km/h
829 19-06-2020 21:00:00 17.1 C 13.1 g/m*3 17.1 C 8.1 km/h
830 19-06-2020 21:05:00 16.8 C 12.87 g/m*3 16.8 C 8.1 km/h
831 19-06-2020 21:10:00 16.6 C 12.71 g/m*3 16.6 C 8.1 km/h
832 19-06-2020 21:15:00 16.3 C 12.62 g/m*3 16.3 C 8.1 km/h
833 19-06-2020 21:20:00 16.2 C 12.55 g/m*3 16.2 C 8.1 km/h
834 19-06-2020 21:25:00 16 C 12.53 g/m*3 16 C 8.1 km/h
835 19-06-2020 21:30:00 15.9 C 12.46 g/m*3 15.9 C 6.4 km/h
836 19-06-2020 21:35:00 15.8 C 12.38 g/m*3 15.8 C 8.1 km/h
837 19-06-2020 21:40:00 15.7 C 12.31 g/m*3 15.7 C 3.2 km/h
838 19-06-2020 21:45:00 15.6 C 12.37 g/m*3 15.6 C 8.1 km/h
839 19-06-2020 21:50:00 15.5 C 12.29 g/m*3 15.5 C 8.1 km/h
840 19-06-2020 21:55:00 15.4 C 12.22 g/m*3 15.4 C 6.4 km/h
841 19-06-2020 22:00:00 15.3 C 12.14 g/m*3 15.3 C 6.4 km/h
842 19-06-2020 22:05:00 15.2 C 12.07 g/m*3 15.2 C 4.8 km/h
843 19-06-2020 22:10:00 15 C 11.93 g/m*3 15 C 4.8 km/h
844 19-06-2020 22:15:00 14.9 C 11.85 g/m*3 14.9 C 4.8 km/h
845 19-06-2020 22:20:00 14.8 C 11.91 g/m*3 14.8 C 3.2 km/h
846 19-06-2020 22:25:00 14.8 C 11.91 g/m*3 14.8 C 3.2 km/h
847 19-06-2020 22:30:00 14.7 C 11.83 g/m*3 14.7 C 3.2 km/h
848 19-06-2020 22:35:00 14.7 C 11.83 g/m*3 14.7 C 4.8 km/h
849 19-06-2020 22:40:00 14.6 C 11.76 g/m*3 14.6 C 4.8 km/h
850 19-06-2020 22:45:00 14.6 C 11.76 g/m*3 14.6 C 0 km/h
Sensor: Nr:Datum:Temp:Abs-Feuchte:Windchill:Wind:
Aussen-T/F 851 19-06-2020 22:50:00 14.6 C 11.89 g/m*3 14.6 C 3.2 km/h
852 19-06-2020 22:55:00 14.6 C 11.76 g/m*3 14.6 C 1.6 km/h
853 19-06-2020 23:00:00 14.5 C 11.69 g/m*3 14.5 C 0 km/h
854 19-06-2020 23:05:00 14.4 C 11.62 g/m*3 14.4 C 3.2 km/h
855 19-06-2020 23:10:00 14.3 C 11.55 g/m*3 14.3 C 3.2 km/h
856 19-06-2020 23:15:00 14.3 C 11.55 g/m*3 14.3 C 0 km/h
857 19-06-2020 23:20:00 14.2 C 11.6 g/m*3 14.2 C 0 km/h
858 19-06-2020 23:25:00 14.2 C 11.6 g/m*3 14.2 C 0 km/h
859 19-06-2020 23:30:00 14.1 C 11.53 g/m*3 14.1 C 0 km/h
860 19-06-2020 23:35:00 14.1 C 11.53 g/m*3 14.1 C 0 km/h
861 19-06-2020 23:40:00 14.1 C 11.53 g/m*3 14.1 C 0 km/h
862 19-06-2020 23:45:00 14 C 11.46 g/m*3 14 C 0 km/h
863 19-06-2020 23:50:00 14 C 11.46 g/m*3 14 C 0 km/h
864 19-06-2020 23:55:00 13.9 C 11.39 g/m*3 13.9 C 0 km/h
865 20-06-2020 00:00:00 13.9 C 11.39 g/m*3 13.9 C 0 km/h
866 20-06-2020 00:05:00 13.9 C 11.39 g/m*3 13.9 C 0 km/h
867 20-06-2020 00:10:00 13.8 C 11.32 g/m*3 13.8 C 0 km/h
868 20-06-2020 00:15:00 13.8 C 11.32 g/m*3 13.8 C 0 km/h
869 20-06-2020 00:20:00 13.7 C 11.25 g/m*3 13.7 C 0 km/h
870 20-06-2020 00:25:00 13.6 C 11.18 g/m*3 13.6 C 1.6 km/h
871 20-06-2020 00:30:00 13.5 C 11.11 g/m*3 13.5 C 0 km/h
872 20-06-2020 00:35:00 13.4 C 11.04 g/m*3 13.4 C 0 km/h
873 20-06-2020 00:40:00 13.4 C 11.04 g/m*3 13.4 C 0 km/h
874 20-06-2020 00:45:00 13.4 C 11.04 g/m*3 13.4 C 0 km/h
875 20-06-2020 00:50:00 13.3 C 10.98 g/m*3 13.3 C 0 km/h
Sensor: Nr:Datum:Temp:Abs-Feuchte:Windchill:Wind:
Aussen-T/F 876 20-06-2020 00:55:00 13.3 C 11.09 g/m*3 13.3 C 0 km/h
877 20-06-2020 01:00:00 13.3 C 11.09 g/m*3 13.3 C 0 km/h
878 20-06-2020 01:05:00 13.4 C 11.16 g/m*3 13.4 C 0 km/h
879 20-06-2020 01:10:00 13.4 C 11.16 g/m*3 13.4 C 0 km/h
880 20-06-2020 01:15:00 13.4 C 11.16 g/m*3 13.4 C 0 km/h
881 20-06-2020 01:20:00 13.5 C 11.23 g/m*3 13.5 C 0 km/h
882 20-06-2020 01:25:00 13.5 C 11.23 g/m*3 13.5 C 0 km/h
883 20-06-2020 01:30:00 13.5 C 11.23 g/m*3 13.5 C 0 km/h
884 20-06-2020 01:35:00 13.5 C 11.23 g/m*3 13.5 C 0 km/h
885 20-06-2020 01:40:00 13.5 C 11.23 g/m*3 13.5 C 0 km/h
886 20-06-2020 01:45:00 13.5 C 11.23 g/m*3 13.5 C 0 km/h
887 20-06-2020 01:50:00 13.6 C 11.3 g/m*3 13.6 C 0 km/h
888 20-06-2020 01:55:00 13.6 C 11.3 g/m*3 13.6 C 1.6 km/h
889 20-06-2020 02:00:00 13.6 C 11.3 g/m*3 13.6 C 1.6 km/h
890 20-06-2020 02:05:00 13.6 C 11.3 g/m*3 13.6 C 0 km/h
891 20-06-2020 02:10:00 13.6 C 11.3 g/m*3 13.6 C 0 km/h
892 20-06-2020 02:15:00 13.5 C 11.23 g/m*3 13.5 C 0 km/h
893 20-06-2020 02:20:00 13.4 C 11.16 g/m*3 13.4 C 0 km/h
894 20-06-2020 02:25:00 13.3 C 11.09 g/m*3 13.3 C 0 km/h
895 20-06-2020 02:30:00 13.3 C 11.09 g/m*3 13.3 C 0 km/h
896 20-06-2020 02:35:00 13.2 C 11.02 g/m*3 13.2 C 3.2 km/h
897 20-06-2020 02:40:00 13.2 C 11.02 g/m*3 13.2 C 3.2 km/h
898 20-06-2020 02:45:00 13.2 C 11.02 g/m*3 13.2 C 0 km/h
899 20-06-2020 02:50:00 13.2 C 11.02 g/m*3 13.2 C 0 km/h
900 20-06-2020 02:55:00 13.2 C 11.02 g/m*3 13.2 C 0 km/h
Sensor: Nr:Datum:Temp:Abs-Feuchte:Windchill:Wind:
Aussen-T/F 901 20-06-2020 03:00:00 13.2 C 11.02 g/m*3 13.2 C 0 km/h
902 20-06-2020 03:05:00 13.1 C 10.95 g/m*3 13.1 C 0 km/h
903 20-06-2020 03:10:00 13.1 C 10.95 g/m*3 13.1 C 0 km/h
904 20-06-2020 03:15:00 13 C 10.89 g/m*3 13 C 0 km/h
905 20-06-2020 03:20:00 13 C 10.89 g/m*3 13 C 0 km/h
906 20-06-2020 03:25:00 12.9 C 10.82 g/m*3 12.9 C 0 km/h
907 20-06-2020 03:30:00 12.9 C 10.82 g/m*3 12.9 C 0 km/h
908 20-06-2020 03:35:00 12.9 C 10.82 g/m*3 12.9 C 0 km/h
909 20-06-2020 03:40:00 12.9 C 10.82 g/m*3 12.9 C 0 km/h
910 20-06-2020 03:45:00 12.9 C 10.82 g/m*3 12.9 C 0 km/h
911 20-06-2020 03:50:00 12.8 C 10.75 g/m*3 12.8 C 0 km/h
912 20-06-2020 03:55:00 12.8 C 10.75 g/m*3 12.8 C 0 km/h
913 20-06-2020 04:00:00 12.8 C 10.75 g/m*3 12.8 C 0 km/h
914 20-06-2020 04:05:00 12.7 C 10.69 g/m*3 12.7 C 0 km/h
915 20-06-2020 04:10:00 12.7 C 10.69 g/m*3 12.7 C 3.2 km/h
916 20-06-2020 04:15:00 12.7 C 10.69 g/m*3 12.7 C 0 km/h
917 20-06-2020 04:20:00 12.6 C 10.62 g/m*3 12.6 C 0 km/h
918 20-06-2020 04:25:00 12.6 C 10.62 g/m*3 12.6 C 1.6 km/h
919 20-06-2020 04:30:00 12.6 C 10.62 g/m*3 12.6 C 0 km/h
920 20-06-2020 04:35:00 12.5 C 10.55 g/m*3 12.5 C 0 km/h
921 20-06-2020 04:40:00 12.5 C 10.66 g/m*3 12.5 C 0 km/h
922 20-06-2020 04:45:00 12.4 C 10.6 g/m*3 12.4 C 0 km/h
923 20-06-2020 04:50:00 12.5 C 10.66 g/m*3 12.5 C 0 km/h
924 20-06-2020 04:55:00 12.5 C 10.66 g/m*3 12.5 C 0 km/h
925 20-06-2020 05:00:00 12.6 C 10.73 g/m*3 12.6 C 1.6 km/h
Sensor: Nr:Datum:Temp:Abs-Feuchte:Windchill:Wind:
Aussen-T/F 926 20-06-2020 05:05:00 12.6 C 10.73 g/m*3 12.6 C 0 km/h
927 20-06-2020 05:10:00 12.6 C 10.73 g/m*3 12.6 C 0 km/h
928 20-06-2020 05:15:00 12.6 C 10.73 g/m*3 12.6 C 0 km/h
929 20-06-2020 05:20:00 12.6 C 10.73 g/m*3 12.6 C 0 km/h
930 20-06-2020 05:25:00 12.6 C 10.73 g/m*3 12.6 C 0 km/h
931 20-06-2020 05:30:00 12.5 C 10.66 g/m*3 12.5 C 0 km/h
932 20-06-2020 05:35:00 12.4 C 10.6 g/m*3 12.4 C 1.6 km/h
933 20-06-2020 05:40:00 12.3 C 10.42 g/m*3 12.3 C 0 km/h
934 20-06-2020 05:45:00 12.3 C 10.42 g/m*3 12.3 C 0 km/h
935 20-06-2020 05:50:00 12.3 C 10.53 g/m*3 12.3 C 3.2 km/h
936 20-06-2020 05:55:00 12.3 C 10.53 g/m*3 12.3 C 1.6 km/h
937 20-06-2020 06:00:00 12.3 C 10.53 g/m*3 12.3 C 3.2 km/h
938 20-06-2020 06:05:00 12.5 C 10.66 g/m*3 12.5 C 1.6 km/h
939 20-06-2020 06:10:00 12.6 C 10.73 g/m*3 12.6 C 0 km/h
940 20-06-2020 06:15:00 12.6 C 10.73 g/m*3 12.6 C 0 km/h
941 20-06-2020 06:20:00 12.6 C 10.73 g/m*3 12.6 C 3.2 km/h
942 20-06-2020 06:25:00 12.6 C 10.73 g/m*3 12.6 C 3.2 km/h
943 20-06-2020 06:30:00 12.7 C 10.8 g/m*3 12.7 C 6.4 km/h
944 20-06-2020 06:35:00 12.7 C 10.8 g/m*3 12.7 C 6.4 km/h
945 20-06-2020 06:40:00 12.7 C 10.8 g/m*3 12.7 C 3.2 km/h
946 20-06-2020 06:45:00 12.8 C 10.87 g/m*3 12.8 C 3.2 km/h
947 20-06-2020 06:50:00 12.8 C 10.87 g/m*3 12.8 C 6.4 km/h
948 20-06-2020 06:55:00 12.8 C 10.87 g/m*3 12.8 C 8.1 km/h
949 20-06-2020 07:00:00 12.8 C 10.87 g/m*3 12.8 C 8.1 km/h
950 20-06-2020 07:05:00 12.9 C 10.93 g/m*3 12.9 C 6.4 km/h
Sensor: Nr:Datum:Temp:Abs-Feuchte:Windchill:Wind:
Aussen-T/F 951 20-06-2020 07:10:00 12.9 C 10.93 g/m*3 12.9 C 6.4 km/h
952 20-06-2020 07:15:00 13 C 11 g/m*3 13 C 6.4 km/h
953 20-06-2020 07:20:00 13 C 11 g/m*3 13 C 4.8 km/h
954 20-06-2020 07:25:00 13 C 11 g/m*3 13 C 3.2 km/h
955 20-06-2020 07:30:00 13.1 C 11.07 g/m*3 13.1 C 6.4 km/h
956 20-06-2020 07:35:00 13.1 C 11.07 g/m*3 13.1 C 3.2 km/h
957 20-06-2020 07:40:00 13.1 C 11.07 g/m*3 13.1 C 3.2 km/h
958 20-06-2020 07:45:00 13.2 C 11.14 g/m*3 13.2 C 0 km/h
959 20-06-2020 07:50:00 13.2 C 11.14 g/m*3 13.2 C 0 km/h
960 20-06-2020 07:55:00 13.3 C 11.21 g/m*3 13.3 C 0 km/h
961 20-06-2020 08:00:00 13.3 C 11.21 g/m*3 13.3 C 0 km/h
962 20-06-2020 08:05:00 13.4 C 11.28 g/m*3 13.4 C 0 km/h
963 20-06-2020 08:10:00 13.6 C 11.42 g/m*3 13.6 C 0 km/h
964 20-06-2020 08:15:00 13.7 C 11.49 g/m*3 13.7 C 0 km/h
965 20-06-2020 08:20:00 14 C 11.82 g/m*3 14 C 0 km/h
966 20-06-2020 08:25:00 14.1 C 11.89 g/m*3 14.1 C 0 km/h
967 20-06-2020 08:30:00 14.3 C 12.04 g/m*3 14.3 C 0 km/h
968 20-06-2020 08:35:00 14.4 C 12.11 g/m*3 14.4 C 1.6 km/h
969 20-06-2020 08:40:00 14.6 C 12.26 g/m*3 14.6 C 0 km/h
970 20-06-2020 08:45:00 14.7 C 12.34 g/m*3 14.7 C 1.6 km/h
971 20-06-2020 08:50:00 14.7 C 12.34 g/m*3 14.7 C 1.6 km/h
972 20-06-2020 08:55:00 14.7 C 12.34 g/m*3 14.7 C 0 km/h
973 20-06-2020 09:00:00 14.8 C 12.29 g/m*3 14.8 C 0 km/h
974 20-06-2020 09:05:00 14.8 C 12.29 g/m*3 14.8 C 0 km/h
975 20-06-2020 09:10:00 14.8 C 12.29 g/m*3 14.8 C 0 km/h
Sensor: Nr:Datum:Temp:Abs-Feuchte:Windchill:Wind:
Aussen-T/F 976 20-06-2020 09:15:00 14.9 C 12.36 g/m*3 14.9 C 3.2 km/h
977 20-06-2020 09:20:00 15.1 C 12.51 g/m*3 15.1 C 1.6 km/h
978 20-06-2020 09:25:00 15.2 C 12.59 g/m*3 15.2 C 0 km/h
979 20-06-2020 09:30:00 15.4 C 12.74 g/m*3 15.4 C 0 km/h
980 20-06-2020 09:35:00 15.6 C 12.9 g/m*3 15.6 C 0 km/h
981 20-06-2020 09:40:00 15.7 C 12.84 g/m*3 15.7 C 0 km/h
982 20-06-2020 09:45:00 15.8 C 12.92 g/m*3 15.8 C 1.6 km/h
983 20-06-2020 09:50:00 16 C 13.08 g/m*3 16 C 1.6 km/h
984 20-06-2020 09:55:00 16.2 C 13.1 g/m*3 16.2 C 1.6 km/h
985 20-06-2020 10:00:00 16.3 C 13.18 g/m*3 16.3 C 0 km/h
986 20-06-2020 10:05:00 16.4 C 13.26 g/m*3 16.4 C 0 km/h
987 20-06-2020 10:10:00 16.5 C 13.34 g/m*3 16.5 C 0 km/h
988 20-06-2020 10:15:00 16.7 C 13.5 g/m*3 16.7 C 0 km/h
989 20-06-2020 10:20:00 16.8 C 13.15 g/m*3 16.8 C 6.4 km/h
990 20-06-2020 10:25:00 17.2 C 13.18 g/m*3 17.2 C 6.4 km/h
991 20-06-2020 10:30:00 17.7 C 13.73 g/m*3 17.7 C 0 km/h
992 20-06-2020 10:35:00 18 C 13.82 g/m*3 18 C 0 km/h
993 20-06-2020 10:40:00 18.3 C 13.13 g/m*3 18.3 C 1.6 km/h
994 20-06-2020 10:45:00 18.7 C 13.13 g/m*3 18.7 C 0 km/h
995 20-06-2020 10:50:00 18.9 C 12.8 g/m*3 18.9 C 4.8 km/h
996 20-06-2020 10:55:00 19.3 C 12.94 g/m*3 19.3 C 8.1 km/h
997 20-06-2020 11:00:00 19.4 C 12.51 g/m*3 19.4 C 4.8 km/h
998 20-06-2020 11:05:00 19.6 C 12.83 g/m*3 19.6 C 3.2 km/h
999 20-06-2020 11:10:00 19.9 C 13.06 g/m*3 19.9 C 6.4 km/h
1000 20-06-2020 11:15:00 20.2 C 13.11 g/m*3 20.2 C 11.3 km/h
Sensor: Nr:Datum:Temp:Abs-Feuchte:Windchill:Wind:
Aussen-T/F 1001 20-06-2020 11:20:00 20.4 C 13.27 g/m*3 20.4 C 6.4 km/h
1002 20-06-2020 11:25:00 20.4 C 12.74 g/m*3 20.4 C 6.4 km/h
1003 20-06-2020 11:30:00 20.3 C 12.84 g/m*3 20.3 C 3.2 km/h
1004 20-06-2020 11:35:00 20.3 C 12.84 g/m*3 20.3 C 8.1 km/h
1005 20-06-2020 11:40:00 20.3 C 13.01 g/m*3 20.3 C 8.1 km/h
1006 20-06-2020 11:45:00 20.3 C 12.66 g/m*3 20.3 C 6.4 km/h
1007 20-06-2020 11:50:00 20.2 C 12.59 g/m*3 20.2 C 3.2 km/h
1008 20-06-2020 11:55:00 20.1 C 12.86 g/m*3 20.1 C 8.1 km/h
1009 20-06-2020 12:00:00 20 C 12.62 g/m*3 20 C 6.4 km/h
1010 20-06-2020 12:05:00 19.9 C 12.71 g/m*3 19.9 C 6.4 km/h
1011 20-06-2020 12:10:00 19.8 C 11.61 g/m*3 19.8 C 6.4 km/h
1012 20-06-2020 12:15:00 19.8 C 12.3 g/m*3 19.8 C 4.8 km/h
1013 20-06-2020 12:20:00 19.8 C 13.32 g/m*3 19.8 C 6.4 km/h
1014 20-06-2020 12:25:00 19.6 C 13 g/m*3 19.6 C 4.8 km/h
1015 20-06-2020 12:30:00 19.6 C 13 g/m*3 19.6 C 6.4 km/h
1016 20-06-2020 12:35:00 19.6 C 12.66 g/m*3 19.6 C 4.8 km/h
1017 20-06-2020 12:40:00 19.6 C 13 g/m*3 19.6 C 3.2 km/h
1018 20-06-2020 12:45:00 19.8 C 13.15 g/m*3 19.8 C 1.6 km/h
1019 20-06-2020 12:50:00 19.8 C 12.98 g/m*3 19.8 C 1.6 km/h
1020 20-06-2020 12:55:00 19.9 C 13.23 g/m*3 19.9 C 3.2 km/h
1021 20-06-2020 13:00:00 19.9 C 13.06 g/m*3 19.9 C 4.8 km/h
1022 20-06-2020 13:05:00 19.8 C 13.15 g/m*3 19.8 C 4.8 km/h
1023 20-06-2020 13:10:00 19.7 C 13.25 g/m*3 19.7 C 3.2 km/h
1024 20-06-2020 13:15:00 19.7 C 13.41 g/m*3 19.7 C 4.8 km/h
1025 20-06-2020 13:20:00 19.6 C 13.34 g/m*3 19.6 C 1.6 km/h
Sensor: Nr:Datum:Temp:Abs-Feuchte:Windchill:Wind:
Aussen-T/F 1026 20-06-2020 13:25:00 19.5 C 13.26 g/m*3 19.5 C 6.4 km/h
1027 20-06-2020 13:30:00 19.3 C 13.27 g/m*3 19.3 C 3.2 km/h
1028 20-06-2020 13:35:00 19.4 C 13.35 g/m*3 19.4 C 3.2 km/h
1029 20-06-2020 13:40:00 19.4 C 13.18 g/m*3 19.4 C 1.6 km/h
1030 20-06-2020 13:45:00 19.5 C 13.26 g/m*3 19.5 C 3.2 km/h
1031 20-06-2020 13:50:00 19.6 C 13.51 g/m*3 19.6 C 4.8 km/h
1032 20-06-2020 13:55:00 19.7 C 13.25 g/m*3 19.7 C 6.4 km/h
1033 20-06-2020 14:00:00 19.7 C 13.25 g/m*3 19.7 C 4.8 km/h
1034 20-06-2020 14:05:00 19.8 C 13.15 g/m*3 19.8 C 4.8 km/h
1035 20-06-2020 14:10:00 19.8 C 13.32 g/m*3 19.8 C 4.8 km/h
1036 20-06-2020 14:15:00 19.9 C 12.71 g/m*3 19.9 C 3.2 km/h
1037 20-06-2020 14:20:00 19.9 C 12.54 g/m*3 19.9 C 6.4 km/h
1038 20-06-2020 14:25:00 19.9 C 12.54 g/m*3 19.9 C 8.1 km/h
1039 20-06-2020 14:30:00 19.8 C 12.64 g/m*3 19.8 C 4.8 km/h
1040 20-06-2020 14:35:00 19.7 C 12.4 g/m*3 19.7 C 0 km/h
1041 20-06-2020 14:40:00 19.7 C 12.74 g/m*3 19.7 C 0 km/h
1042 20-06-2020 14:45:00 19.6 C 12.83 g/m*3 19.6 C 0 km/h
1043 20-06-2020 14:50:00 19.6 C 13.17 g/m*3 19.6 C 0 km/h
1044 20-06-2020 14:55:00 19.5 C 12.75 g/m*3 19.5 C 0 km/h
1045 20-06-2020 15:00:00 19.4 C 12.68 g/m*3 19.4 C 4.8 km/h
1046 20-06-2020 15:05:00 19.5 C 13.09 g/m*3 19.5 C 0 km/h
1047 20-06-2020 15:10:00 19.6 C 13.17 g/m*3 19.6 C 0 km/h
1048 20-06-2020 15:15:00 19.7 C 13.25 g/m*3 19.7 C 1.6 km/h
1049 20-06-2020 15:20:00 19.7 C 12.4 g/m*3 19.7 C 0 km/h
1050 20-06-2020 15:25:00 19.7 C 12.74 g/m*3 19.7 C 1.6 km/h
Sensor: Nr:Datum:Temp:Abs-Feuchte:Windchill:Wind:
Aussen-T/F 1051 20-06-2020 15:30:00 19.9 C 12.71 g/m*3 19.9 C 3.2 km/h
1052 20-06-2020 15:35:00 20.2 C 12.41 g/m*3 20.2 C 4.8 km/h
1053 20-06-2020 15:40:00 20.4 C 12.21 g/m*3 20.4 C 4.8 km/h
1054 20-06-2020 15:45:00 20.9 C 12.57 g/m*3 20.9 C 3.2 km/h
1055 20-06-2020 15:50:00 21.5 C 13.2 g/m*3 21.5 C 6.4 km/h
1056 20-06-2020 15:55:00 22 C 13.2 g/m*3 22 C 3.2 km/h
1057 20-06-2020 16:00:00 22.6 C 13.26 g/m*3 22.6 C 4.8 km/h
1058 20-06-2020 16:05:00 23.2 C 13.1 g/m*3 23.2 C 4.8 km/h
1059 20-06-2020 16:10:00 23.4 C 11.99 g/m*3 23.4 C 4.8 km/h
1060 20-06-2020 16:15:00 23.3 C 12.34 g/m*3 23.3 C 4.8 km/h
1061 20-06-2020 16:20:00 23.2 C 12.47 g/m*3 23.2 C 6.4 km/h
1062 20-06-2020 16:25:00 23.2 C 12.06 g/m*3 23.2 C 4.8 km/h
1063 20-06-2020 16:30:00 22.9 C 12.06 g/m*3 22.9 C 6.4 km/h
1064 20-06-2020 16:35:00 22.8 C 11.99 g/m*3 22.8 C 6.4 km/h
1065 20-06-2020 16:40:00 22.7 C 11.52 g/m*3 22.7 C 9.7 km/h
1066 20-06-2020 16:45:00 22.6 C 11.25 g/m*3 22.6 C 11.3 km/h
1067 20-06-2020 16:50:00 22.4 C 11.52 g/m*3 22.4 C 9.7 km/h
1068 20-06-2020 16:55:00 22.4 C 11.32 g/m*3 22.4 C 9.7 km/h
1069 20-06-2020 17:00:00 22.4 C 11.52 g/m*3 22.4 C 6.4 km/h
1070 20-06-2020 17:05:00 22.5 C 11.78 g/m*3 22.5 C 9.7 km/h
1071 20-06-2020 17:10:00 22.4 C 11.52 g/m*3 22.4 C 8.1 km/h
1072 20-06-2020 17:15:00 22.4 C 11.52 g/m*3 22.4 C 9.7 km/h
1073 20-06-2020 17:20:00 22.4 C 11.12 g/m*3 22.4 C 8.1 km/h
1074 20-06-2020 17:25:00 22.4 C 11.72 g/m*3 22.4 C 8.1 km/h
1075 20-06-2020 17:30:00 22.3 C 11.06 g/m*3 22.3 C 4.8 km/h
Sensor: Nr:Datum:Temp:Abs-Feuchte:Windchill:Wind:
Aussen-T/F 1076 20-06-2020 17:35:00 22.3 C 10.86 g/m*3 22.3 C 3.2 km/h
1077 20-06-2020 17:40:00 22.2 C 11.19 g/m*3 22.2 C 3.2 km/h
1078 20-06-2020 17:45:00 22.2 C 11.19 g/m*3 22.2 C 4.8 km/h
1079 20-06-2020 17:50:00 22.2 C 10.6 g/m*3 22.2 C 4.8 km/h
1080 20-06-2020 17:55:00 22.3 C 12.24 g/m*3 22.3 C 0 km/h
1081 20-06-2020 18:00:00 22.4 C 13.5 g/m*3 22.4 C 0 km/h
1082 20-06-2020 18:05:00 22.4 C 13.7 g/m*3 22.4 C 0 km/h
1083 20-06-2020 18:10:00 22.2 C 12.17 g/m*3 22.2 C 12.9 km/h
1084 20-06-2020 18:15:00 21.8 C 12.28 g/m*3 21.8 C 12.9 km/h
1085 20-06-2020 18:20:00 21.4 C 12.56 g/m*3 21.4 C 11.3 km/h
1086 20-06-2020 18:25:00 21 C 12.64 g/m*3 21 C 14.5 km/h
1087 20-06-2020 18:30:00 20.7 C 12.78 g/m*3 20.7 C 9.7 km/h
1088 20-06-2020 18:35:00 20.4 C 12.74 g/m*3 20.4 C 9.7 km/h
1089 20-06-2020 18:40:00 20.2 C 12.76 g/m*3 20.2 C 6.4 km/h
1090 20-06-2020 18:45:00 20.2 C 13.11 g/m*3 20.2 C 1.6 km/h
1091 20-06-2020 18:50:00 20.1 C 13.04 g/m*3 20.1 C 6.4 km/h
1092 20-06-2020 18:55:00 20 C 12.79 g/m*3 20 C 6.4 km/h
1093 20-06-2020 19:00:00 19.9 C 12.89 g/m*3 19.9 C 8.1 km/h
1094 20-06-2020 19:05:00 19.8 C 12.81 g/m*3 19.8 C 8.1 km/h
1095 20-06-2020 19:10:00 19.7 C 12.74 g/m*3 19.7 C 3.2 km/h
1096 20-06-2020 19:15:00 19.7 C 12.91 g/m*3 19.7 C 4.8 km/h
1097 20-06-2020 19:20:00 19.7 C 12.74 g/m*3 19.7 C 9.7 km/h
1098 20-06-2020 19:25:00 19.7 C 12.74 g/m*3 19.7 C 6.4 km/h
1099 20-06-2020 19:30:00 19.7 C 12.91 g/m*3 19.7 C 3.2 km/h
1100 20-06-2020 19:35:00 19.6 C 13 g/m*3 19.6 C 8.1 km/h
Sensor: Nr:Datum:Temp:Abs-Feuchte:Windchill:Wind:
Aussen-T/F 1101 20-06-2020 19:40:00 19.5 C 12.75 g/m*3 19.5 C 6.4 km/h
1102 20-06-2020 19:45:00 19.4 C 12.85 g/m*3 19.4 C 6.4 km/h
1103 20-06-2020 19:50:00 19.4 C 13.01 g/m*3 19.4 C 4.8 km/h
1104 20-06-2020 19:55:00 19.4 C 13.18 g/m*3 19.4 C 1.6 km/h
1105 20-06-2020 20:00:00 19.4 C 13.18 g/m*3 19.4 C 0 km/h
1106 20-06-2020 20:05:00 19.3 C 13.27 g/m*3 19.3 C 1.6 km/h
1107 20-06-2020 20:10:00 19.3 C 13.27 g/m*3 19.3 C 4.8 km/h
1108 20-06-2020 20:15:00 19.2 C 13.36 g/m*3 19.2 C 3.2 km/h
1109 20-06-2020 20:20:00 19.1 C 13.44 g/m*3 19.1 C 3.2 km/h
1110 20-06-2020 20:25:00 19.1 C 13.44 g/m*3 19.1 C 3.2 km/h
1111 20-06-2020 20:30:00 18.9 C 13.45 g/m*3 18.9 C 0 km/h
1112 20-06-2020 20:35:00 18.9 C 13.45 g/m*3 18.9 C 0 km/h
1113 20-06-2020 20:40:00 18.9 C 13.45 g/m*3 18.9 C 0 km/h
1114 20-06-2020 20:45:00 18.8 C 13.21 g/m*3 18.8 C 4.8 km/h
1115 20-06-2020 20:50:00 18.8 C 13.53 g/m*3 18.8 C 0 km/h
1116 20-06-2020 20:55:00 18.8 C 13.53 g/m*3 18.8 C 1.6 km/h
1117 20-06-2020 21:00:00 18.8 C 13.21 g/m*3 18.8 C 1.6 km/h
1118 20-06-2020 21:05:00 18.7 C 13.13 g/m*3 18.7 C 3.2 km/h
1119 20-06-2020 21:10:00 18.7 C 13.13 g/m*3 18.7 C 1.6 km/h
1120 20-06-2020 21:15:00 18.7 C 13.29 g/m*3 18.7 C 4.8 km/h
1121 20-06-2020 21:20:00 18.7 C 13.45 g/m*3 18.7 C 3.2 km/h
1122 20-06-2020 21:25:00 18.6 C 13.37 g/m*3 18.6 C 4.8 km/h
1123 20-06-2020 21:30:00 18.4 C 13.21 g/m*3 18.4 C 4.8 km/h
1124 20-06-2020 21:35:00 18.3 C 13.13 g/m*3 18.3 C 3.2 km/h
1125 20-06-2020 21:40:00 18.1 C 13.13 g/m*3 18.1 C 3.2 km/h
Sensor: Nr:Datum:Temp:Abs-Feuchte:Windchill:Wind:
Aussen-T/F 1126 20-06-2020 21:45:00 17.9 C 12.98 g/m*3 17.9 C 1.6 km/h
1127 20-06-2020 21:50:00 17.8 C 12.9 g/m*3 17.8 C 0 km/h
1128 20-06-2020 21:55:00 17.7 C 12.82 g/m*3 17.7 C 3.2 km/h
1129 20-06-2020 22:00:00 17.5 C 12.82 g/m*3 17.5 C 4.8 km/h
1130 20-06-2020 22:05:00 17.4 C 12.75 g/m*3 17.4 C 3.2 km/h
1131 20-06-2020 22:10:00 17.3 C 12.82 g/m*3 17.3 C 0 km/h
1132 20-06-2020 22:15:00 17.2 C 12.74 g/m*3 17.2 C 0 km/h
1133 20-06-2020 22:20:00 17.1 C 12.66 g/m*3 17.1 C 1.6 km/h
1134 20-06-2020 22:25:00 17 C 12.59 g/m*3 17 C 4.8 km/h
1135 20-06-2020 22:30:00 16.9 C 12.66 g/m*3 16.9 C 4.8 km/h
1136 20-06-2020 22:35:00 16.8 C 12.58 g/m*3 16.8 C 4.8 km/h
1137 20-06-2020 22:40:00 16.8 C 12.58 g/m*3 16.8 C 3.2 km/h
1138 20-06-2020 22:45:00 16.7 C 12.51 g/m*3 16.7 C 0 km/h
1139 20-06-2020 22:50:00 16.7 C 12.51 g/m*3 16.7 C 3.2 km/h
1140 20-06-2020 22:55:00 16.6 C 12.43 g/m*3 16.6 C 0 km/h
1141 20-06-2020 23:00:00 16.4 C 12.28 g/m*3 16.4 C 6.4 km/h
1142 20-06-2020 23:05:00 16.3 C 12.21 g/m*3 16.3 C 3.2 km/h
1143 20-06-2020 23:10:00 16.2 C 12.14 g/m*3 16.2 C 3.2 km/h
1144 20-06-2020 23:15:00 16 C 11.99 g/m*3 16 C 3.2 km/h
1145 20-06-2020 23:20:00 15.8 C 11.85 g/m*3 15.8 C 1.6 km/h
1146 20-06-2020 23:25:00 15.7 C 11.91 g/m*3 15.7 C 1.6 km/h
1147 20-06-2020 23:30:00 15.6 C 11.84 g/m*3 15.6 C 1.6 km/h
1148 20-06-2020 23:35:00 15.5 C 11.76 g/m*3 15.5 C 1.6 km/h
1149 20-06-2020 23:40:00 15.3 C 11.62 g/m*3 15.3 C 3.2 km/h
1150 20-06-2020 23:45:00 15.2 C 11.68 g/m*3 15.2 C 1.6 km/h
Sensor: Nr:Datum:Temp:Abs-Feuchte:Windchill:Wind:
Aussen-T/F 1151 20-06-2020 23:50:00 15.2 C 11.68 g/m*3 15.2 C 0 km/h
1152 20-06-2020 23:55:00 15.1 C 11.61 g/m*3 15.1 C 0 km/h
1153 21-06-2020 00:00:00 14.9 C 11.47 g/m*3 14.9 C 1.6 km/h
1154 21-06-2020 00:05:00 14.8 C 11.4 g/m*3 14.8 C 1.6 km/h
1155 21-06-2020 00:10:00 14.8 C 11.53 g/m*3 14.8 C 0 km/h
1156 21-06-2020 00:15:00 14.7 C 11.46 g/m*3 14.7 C 0 km/h
1157 21-06-2020 00:20:00 14.6 C 11.39 g/m*3 14.6 C 0 km/h
1158 21-06-2020 00:25:00 14.5 C 11.44 g/m*3 14.5 C 0 km/h
1159 21-06-2020 00:30:00 14.4 C 11.37 g/m*3 14.4 C 1.6 km/h
1160 21-06-2020 00:35:00 14.3 C 11.3 g/m*3 14.3 C 0 km/h
1161 21-06-2020 00:40:00 14.3 C 11.3 g/m*3 14.3 C 0 km/h
1162 21-06-2020 00:45:00 14.2 C 11.23 g/m*3 14.2 C 0 km/h
1163 21-06-2020 00:50:00 14.2 C 11.23 g/m*3 14.2 C 1.6 km/h
1164 21-06-2020 00:55:00 14.1 C 11.29 g/m*3 14.1 C 1.6 km/h
1165 21-06-2020 01:00:00 14.1 C 11.29 g/m*3 14.1 C 1.6 km/h
1166 21-06-2020 01:05:00 14.1 C 11.29 g/m*3 14.1 C 0 km/h
1167 21-06-2020 01:10:00 13.9 C 11.15 g/m*3 13.9 C 1.6 km/h
1168 21-06-2020 01:15:00 13.9 C 11.15 g/m*3 13.9 C 1.6 km/h
1169 21-06-2020 01:20:00 13.8 C 11.08 g/m*3 13.8 C 0 km/h
1170 21-06-2020 01:25:00 13.8 C 11.08 g/m*3 13.8 C 0 km/h
1171 21-06-2020 01:30:00 13.8 C 11.08 g/m*3 13.8 C 0 km/h
1172 21-06-2020 01:35:00 13.7 C 11.13 g/m*3 13.7 C 0 km/h
1173 21-06-2020 01:40:00 13.7 C 11.13 g/m*3 13.7 C 0 km/h
1174 21-06-2020 01:45:00 13.7 C 11.13 g/m*3 13.7 C 0 km/h
1175 21-06-2020 01:50:00 13.6 C 11.06 g/m*3 13.6 C 0 km/h
Sensor: Nr:Datum:Temp:Abs-Feuchte:Windchill:Wind:
Aussen-T/F 1176 21-06-2020 01:55:00 13.6 C 11.06 g/m*3 13.6 C 1.6 km/h
1177 21-06-2020 02:00:00 13.6 C 11.06 g/m*3 13.6 C 0 km/h
1178 21-06-2020 02:05:00 13.5 C 10.99 g/m*3 13.5 C 0 km/h
1179 21-06-2020 02:10:00 13.4 C 10.93 g/m*3 13.4 C 0 km/h
1180 21-06-2020 02:15:00 13.3 C 10.86 g/m*3 13.3 C 0 km/h
1181 21-06-2020 02:20:00 13.3 C 10.86 g/m*3 13.3 C 1.6 km/h
1182 21-06-2020 02:25:00 13.2 C 10.79 g/m*3 13.2 C 1.6 km/h
1183 21-06-2020 02:30:00 13.2 C 10.79 g/m*3 13.2 C 0 km/h
1184 21-06-2020 02:35:00 13.2 C 10.79 g/m*3 13.2 C 0 km/h
1185 21-06-2020 02:40:00 13.2 C 10.91 g/m*3 13.2 C 0 km/h
1186 21-06-2020 02:45:00 13.1 C 10.84 g/m*3 13.1 C 3.2 km/h
1187 21-06-2020 02:50:00 13 C 10.66 g/m*3 13 C 3.2 km/h
1188 21-06-2020 02:55:00 12.9 C 10.59 g/m*3 12.9 C 0 km/h
1189 21-06-2020 03:00:00 12.8 C 10.53 g/m*3 12.8 C 0 km/h
1190 21-06-2020 03:05:00 12.8 C 10.64 g/m*3 12.8 C 0 km/h
1191 21-06-2020 03:10:00 12.8 C 10.64 g/m*3 12.8 C 0 km/h
1192 21-06-2020 03:15:00 12.8 C 10.64 g/m*3 12.8 C 1.6 km/h
1193 21-06-2020 03:20:00 12.7 C 10.58 g/m*3 12.7 C 0 km/h
1194 21-06-2020 03:25:00 12.6 C 10.51 g/m*3 12.6 C 0 km/h
1195 21-06-2020 03:30:00 12.5 C 10.44 g/m*3 12.5 C 0 km/h
1196 21-06-2020 03:35:00 12.4 C 10.38 g/m*3 12.4 C 0 km/h
1197 21-06-2020 03:40:00 12.4 C 10.38 g/m*3 12.4 C 0 km/h
1198 21-06-2020 03:45:00 12.3 C 10.32 g/m*3 12.3 C 0 km/h
1199 21-06-2020 03:50:00 12.2 C 10.25 g/m*3 12.2 C 0 km/h
1200 21-06-2020 03:55:00 12.1 C 10.19 g/m*3 12.1 C 0 km/h
Sensor: Nr:Datum:Temp:Abs-Feuchte:Windchill:Wind:
Aussen-T/F 1201 21-06-2020 04:00:00 12 C 10.12 g/m*3 12 C 0 km/h
1202 21-06-2020 04:05:00 11.9 C 10.06 g/m*3 11.9 C 0 km/h
1203 21-06-2020 04:10:00 11.9 C 10.06 g/m*3 11.9 C 0 km/h
1204 21-06-2020 04:15:00 11.8 C 10 g/m*3 11.8 C 0 km/h
1205 21-06-2020 04:20:00 11.8 C 10 g/m*3 11.8 C 0 km/h
1206 21-06-2020 04:25:00 11.7 C 9.94 g/m*3 11.7 C 0 km/h
1207 21-06-2020 04:30:00 11.7 C 9.94 g/m*3 11.7 C 0 km/h
1208 21-06-2020 04:35:00 11.7 C 9.94 g/m*3 11.7 C 0 km/h
1209 21-06-2020 04:40:00 11.8 C 10.1 g/m*3 11.8 C 0 km/h
1210 21-06-2020 04:45:00 11.8 C 10.1 g/m*3 11.8 C 0 km/h
1211 21-06-2020 04:50:00 11.8 C 10 g/m*3 11.8 C 0 km/h
1212 21-06-2020 04:55:00 11.8 C 10.1 g/m*3 11.8 C 0 km/h
1213 21-06-2020 05:00:00 11.9 C 10.17 g/m*3 11.9 C 0 km/h
1214 21-06-2020 05:05:00 11.9 C 10.17 g/m*3 11.9 C 0 km/h
1215 21-06-2020 05:10:00 12.1 C 10.29 g/m*3 12.1 C 0 km/h
1216 21-06-2020 05:15:00 12.1 C 10.29 g/m*3 12.1 C 4.8 km/h
1217 21-06-2020 05:20:00 12.3 C 10.42 g/m*3 12.3 C 4.8 km/h
1218 21-06-2020 05:25:00 12.3 C 10.42 g/m*3 12.3 C 0 km/h
1219 21-06-2020 05:30:00 12.3 C 10.42 g/m*3 12.3 C 0 km/h
1220 21-06-2020 05:35:00 12.3 C 10.42 g/m*3 12.3 C 0 km/h
1221 21-06-2020 05:40:00 12.3 C 10.42 g/m*3 12.3 C 0 km/h
1222 21-06-2020 05:45:00 12.3 C 10.42 g/m*3 12.3 C 1.6 km/h
1223 21-06-2020 05:50:00 12.3 C 10.42 g/m*3 12.3 C 0 km/h
1224 21-06-2020 05:55:00 12.3 C 10.42 g/m*3 12.3 C 0 km/h
1225 21-06-2020 06:00:00 12.3 C 10.42 g/m*3 12.3 C 0 km/h
Sensor: Nr:Datum:Temp:Abs-Feuchte:Windchill:Wind:
Aussen-T/F 1226 21-06-2020 06:05:00 12.2 C 10.36 g/m*3 12.2 C 0 km/h
1227 21-06-2020 06:10:00 12.2 C 10.36 g/m*3 12.2 C 0 km/h
1228 21-06-2020 06:15:00 12.3 C 10.42 g/m*3 12.3 C 0 km/h
1229 21-06-2020 06:20:00 12.3 C 10.42 g/m*3 12.3 C 0 km/h
1230 21-06-2020 06:25:00 12.3 C 10.42 g/m*3 12.3 C 0 km/h
1231 21-06-2020 06:30:00 12.4 C 10.49 g/m*3 12.4 C 0 km/h
1232 21-06-2020 06:35:00 12.4 C 10.49 g/m*3 12.4 C 0 km/h
1233 21-06-2020 06:40:00 12.4 C 10.49 g/m*3 12.4 C 0 km/h
1234 21-06-2020 06:45:00 12.4 C 10.6 g/m*3 12.4 C 0 km/h
1235 21-06-2020 06:50:00 12.6 C 10.62 g/m*3 12.6 C 0 km/h
1236 21-06-2020 06:55:00 12.6 C 10.62 g/m*3 12.6 C 3.2 km/h
1237 21-06-2020 07:00:00 12.6 C 10.62 g/m*3 12.6 C 4.8 km/h
1238 21-06-2020 07:05:00 12.6 C 10.62 g/m*3 12.6 C 1.6 km/h
1239 21-06-2020 07:10:00 12.6 C 10.62 g/m*3 12.6 C 1.6 km/h
1240 21-06-2020 07:15:00 12.7 C 10.8 g/m*3 12.7 C 3.2 km/h
1241 21-06-2020 07:20:00 12.7 C 10.8 g/m*3 12.7 C 4.8 km/h
1242 21-06-2020 07:25:00 12.7 C 10.69 g/m*3 12.7 C 6.4 km/h
1243 21-06-2020 07:30:00 12.7 C 10.69 g/m*3 12.7 C 6.4 km/h
1244 21-06-2020 07:35:00 12.7 C 10.69 g/m*3 12.7 C 6.4 km/h
1245 21-06-2020 07:40:00 12.7 C 10.8 g/m*3 12.7 C 1.6 km/h
1246 21-06-2020 07:45:00 12.8 C 10.87 g/m*3 12.8 C 6.4 km/h
1247 21-06-2020 07:50:00 12.8 C 10.87 g/m*3 12.8 C 4.8 km/h
1248 21-06-2020 07:55:00 12.8 C 10.87 g/m*3 12.8 C 3.2 km/h
1249 21-06-2020 08:00:00 12.9 C 10.93 g/m*3 12.9 C 3.2 km/h
1250 21-06-2020 08:05:00 13 C 11 g/m*3 13 C 4.8 km/h
Sensor: Nr:Datum:Temp:Abs-Feuchte:Windchill:Wind:
Aussen-T/F 1251 21-06-2020 08:10:00 13.1 C 11.07 g/m*3 13.1 C 4.8 km/h
1252 21-06-2020 08:15:00 13.1 C 11.07 g/m*3 13.1 C 4.8 km/h
1253 21-06-2020 08:20:00 13.2 C 11.14 g/m*3 13.2 C 1.6 km/h
1254 21-06-2020 08:25:00 13.3 C 11.21 g/m*3 13.3 C 1.6 km/h
1255 21-06-2020 08:30:00 13.3 C 11.21 g/m*3 13.3 C 1.6 km/h
1256 21-06-2020 08:35:00 13.4 C 11.28 g/m*3 13.4 C 0 km/h
1257 21-06-2020 08:40:00 13.6 C 11.42 g/m*3 13.6 C 3.2 km/h
1258 21-06-2020 08:45:00 13.7 C 11.49 g/m*3 13.7 C 0 km/h
1259 21-06-2020 08:50:00 13.7 C 11.37 g/m*3 13.7 C 0 km/h
1260 21-06-2020 08:55:00 13.7 C 11.37 g/m*3 13.7 C 0 km/h
1261 21-06-2020 09:00:00 13.8 C 11.44 g/m*3 13.8 C 0 km/h
1262 21-06-2020 09:05:00 13.8 C 11.44 g/m*3 13.8 C 0 km/h
1263 21-06-2020 09:10:00 13.9 C 11.51 g/m*3 13.9 C 0 km/h
1264 21-06-2020 09:15:00 14 C 11.58 g/m*3 14 C 0 km/h
1265 21-06-2020 09:20:00 14.2 C 11.72 g/m*3 14.2 C 0 km/h
1266 21-06-2020 09:25:00 14.3 C 11.79 g/m*3 14.3 C 0 km/h
1267 21-06-2020 09:30:00 14.4 C 11.87 g/m*3 14.4 C 0 km/h
1268 21-06-2020 09:35:00 14.6 C 12.01 g/m*3 14.6 C 0 km/h
1269 21-06-2020 09:40:00 14.7 C 12.09 g/m*3 14.7 C 0 km/h
1270 21-06-2020 09:45:00 14.9 C 12.24 g/m*3 14.9 C 0 km/h
1271 21-06-2020 09:50:00 15.2 C 12.46 g/m*3 15.2 C 0 km/h
1272 21-06-2020 09:55:00 15.3 C 12.54 g/m*3 15.3 C 0 km/h
1273 21-06-2020 10:00:00 15.4 C 12.61 g/m*3 15.4 C 0 km/h
1274 21-06-2020 10:05:00 15.6 C 12.63 g/m*3 15.6 C 0 km/h
1275 21-06-2020 10:10:00 15.8 C 12.79 g/m*3 15.8 C 0 km/h
Sensor: Nr:Datum:Temp:Abs-Feuchte:Windchill:Wind:
Aussen-T/F 1276 21-06-2020 10:15:00 15.9 C 12.87 g/m*3 15.9 C 0 km/h
1277 21-06-2020 10:20:00 16.3 C 13.18 g/m*3 16.3 C 0 km/h
1278 21-06-2020 10:25:00 16.6 C 13.28 g/m*3 16.6 C 0 km/h
1279 21-06-2020 10:30:00 17.1 C 13.54 g/m*3 17.1 C 0 km/h
1280 21-06-2020 10:35:00 17.6 C 13.8 g/m*3 17.6 C 0 km/h
1281 21-06-2020 10:40:00 18 C 13.98 g/m*3 18 C 0 km/h
1282 21-06-2020 10:45:00 18.4 C 13.84 g/m*3 18.4 C 0 km/h
1283 21-06-2020 10:50:00 18.8 C 13.69 g/m*3 18.8 C 0 km/h
1284 21-06-2020 10:55:00 19.1 C 13.93 g/m*3 19.1 C 0 km/h
1285 21-06-2020 11:00:00 19.4 C 14.01 g/m*3 19.4 C 0 km/h
1286 21-06-2020 11:05:00 19.7 C 13.75 g/m*3 19.7 C 0 km/h
1287 21-06-2020 11:10:00 20.1 C 13.56 g/m*3 20.1 C 0 km/h
1288 21-06-2020 11:15:00 20.6 C 12.71 g/m*3 20.6 C 0 km/h
1289 21-06-2020 11:20:00 21.1 C 13.27 g/m*3 21.1 C 0 km/h
1290 21-06-2020 11:25:00 21.4 C 12.94 g/m*3 21.4 C 0 km/h
1291 21-06-2020 11:30:00 21.6 C 12.52 g/m*3 21.6 C 0 km/h
1292 21-06-2020 11:35:00 21.7 C 12.21 g/m*3 21.7 C 0 km/h
1293 21-06-2020 11:40:00 21.9 C 12.35 g/m*3 21.9 C 0 km/h
1294 21-06-2020 11:45:00 22.3 C 12.24 g/m*3 22.3 C 0 km/h
1295 21-06-2020 11:50:00 22.5 C 11.58 g/m*3 22.5 C 6.4 km/h
1296 21-06-2020 11:55:00 22.7 C 12.12 g/m*3 22.7 C 6.4 km/h
1297 21-06-2020 12:00:00 22.7 C 12.32 g/m*3 22.7 C 1.6 km/h
1298 21-06-2020 12:05:00 22.6 C 12.86 g/m*3 22.6 C 8.1 km/h
1299 21-06-2020 12:10:00 22.5 C 12.98 g/m*3 22.5 C 8.1 km/h
1300 21-06-2020 12:15:00 22.4 C 12.71 g/m*3 22.4 C 6.4 km/h
Sensor: Nr:Datum:Temp:Abs-Feuchte:Windchill:Wind:
Aussen-T/F 1301 21-06-2020 12:20:00 22.3 C 11.85 g/m*3 22.3 C 8.1 km/h
1302 21-06-2020 12:25:00 22.4 C 12.11 g/m*3 22.4 C 9.7 km/h
1303 21-06-2020 12:30:00 22.6 C 11.85 g/m*3 22.6 C 12.9 km/h
1304 21-06-2020 12:35:00 22.7 C 11.11 g/m*3 22.7 C 9.7 km/h
1305 21-06-2020 12:40:00 22.7 C 10.91 g/m*3 22.7 C 8.1 km/h
1306 21-06-2020 12:45:00 22.8 C 10.97 g/m*3 22.8 C 9.7 km/h
1307 21-06-2020 12:50:00 22.9 C 11.04 g/m*3 22.9 C 11.3 km/h
1308 21-06-2020 12:55:00 23.1 C 11.37 g/m*3 23.1 C 9.7 km/h
1309 21-06-2020 13:00:00 23.3 C 10.87 g/m*3 23.3 C 8.1 km/h
1310 21-06-2020 13:05:00 23.3 C 10.87 g/m*3 23.3 C 9.7 km/h
1311 21-06-2020 13:10:00 23.3 C 12.55 g/m*3 23.3 C 6.4 km/h
1312 21-06-2020 13:15:00 23.3 C 11.29 g/m*3 23.3 C 6.4 km/h
1313 21-06-2020 13:20:00 23.4 C 11.14 g/m*3 23.4 C 9.7 km/h
1314 21-06-2020 13:25:00 23.6 C 11.27 g/m*3 23.6 C 8.1 km/h
1315 21-06-2020 13:30:00 23.7 C 11.34 g/m*3 23.7 C 9.7 km/h
1316 21-06-2020 13:35:00 23.8 C 11.62 g/m*3 23.8 C 6.4 km/h
1317 21-06-2020 13:40:00 23.9 C 12.11 g/m*3 23.9 C 8.1 km/h
1318 21-06-2020 13:45:00 24.1 C 11.82 g/m*3 24.1 C 11.3 km/h
1319 21-06-2020 13:50:00 24.1 C 11.16 g/m*3 24.1 C 9.7 km/h
1320 21-06-2020 13:55:00 24.1 C 11.38 g/m*3 24.1 C 9.7 km/h
1321 21-06-2020 14:00:00 24.1 C 11.38 g/m*3 24.1 C 6.4 km/h
1322 21-06-2020 14:05:00 24.2 C 12.1 g/m*3 24.2 C 12.9 km/h
1323 21-06-2020 14:10:00 24.3 C 11.51 g/m*3 24.3 C 16.1 km/h
1324 21-06-2020 14:15:00 24.2 C 11.44 g/m*3 24.2 C 6.4 km/h
1325 21-06-2020 14:20:00 24.2 C 12.32 g/m*3 24.2 C 6.4 km/h
Sensor: Nr:Datum:Temp:Abs-Feuchte:Windchill:Wind:
Aussen-T/F 1326 21-06-2020 14:25:00 24.3 C 11.95 g/m*3 24.3 C 9.7 km/h
1327 21-06-2020 14:30:00 24.6 C 11.7 g/m*3 24.6 C 11.3 km/h
1328 21-06-2020 14:35:00 24.7 C 12.22 g/m*3 24.7 C 8.1 km/h
1329 21-06-2020 14:40:00 24.8 C 11.84 g/m*3 24.8 C 14.5 km/h
1330 21-06-2020 14:45:00 24.9 C 10.99 g/m*3 24.9 C 9.7 km/h
1331 21-06-2020 14:50:00 25.1 C 11.11 g/m*3 25.1 C 12.9 km/h
1332 21-06-2020 14:55:00 25.2 C 11.17 g/m*3 25.2 C 9.7 km/h
1333 21-06-2020 15:00:00 25.3 C 11 g/m*3 25.3 C 12.9 km/h
1334 21-06-2020 15:05:00 25.6 C 11.43 g/m*3 25.6 C 11.3 km/h
1335 21-06-2020 15:10:00 25.9 C 11.14 g/m*3 25.9 C 9.7 km/h
1336 21-06-2020 15:15:00 26.1 C 11.75 g/m*3 26.1 C 16.1 km/h
1337 21-06-2020 15:20:00 26 C 11.2 g/m*3 26 C 11.3 km/h
1338 21-06-2020 15:25:00 25.9 C 11.62 g/m*3 25.9 C 9.7 km/h
1339 21-06-2020 15:30:00 26.2 C 11.08 g/m*3 26.2 C 11.3 km/h
1340 21-06-2020 15:35:00 26.4 C 11.95 g/m*3 26.4 C 9.7 km/h
1341 21-06-2020 15:40:00 26.8 C 11.96 g/m*3 26.8 C 9.7 km/h
1342 21-06-2020 15:45:00 27.1 C 11.9 g/m*3 27.1 C 8.1 km/h
1343 21-06-2020 15:50:00 27.3 C 12.3 g/m*3 27.3 C 8.1 km/h
1344 21-06-2020 15:55:00 27.3 C 11.77 g/m*3 27.3 C 16.1 km/h
1345 21-06-2020 16:00:00 27.3 C 11.77 g/m*3 27.3 C 6.4 km/h
1346 21-06-2020 16:05:00 27.5 C 11.64 g/m*3 27.5 C 9.7 km/h
1347 21-06-2020 16:10:00 27.6 C 11.71 g/m*3 27.6 C 12.9 km/h
1348 21-06-2020 16:15:00 27.5 C 11.64 g/m*3 27.5 C 14.5 km/h
1349 21-06-2020 16:20:00 27.8 C 11.3 g/m*3 27.8 C 6.4 km/h
1350 21-06-2020 16:25:00 27.9 C 11.09 g/m*3 27.9 C 11.3 km/h
Sensor: Nr:Datum:Temp:Abs-Feuchte:Windchill:Wind:
Aussen-T/F 1351 21-06-2020 16:30:00 28.2 C 11.27 g/m*3 28.2 C 17.7 km/h
1352 21-06-2020 16:35:00 27.9 C 10.82 g/m*3 27.9 C 17.7 km/h
1353 21-06-2020 16:40:00 27.7 C 10.97 g/m*3 27.7 C 9.7 km/h
1354 21-06-2020 16:45:00 27.7 C 11.5 g/m*3 27.7 C 17.7 km/h
1355 21-06-2020 16:50:00 27.6 C 11.44 g/m*3 27.6 C 19.3 km/h
1356 21-06-2020 16:55:00 27.7 C 11.23 g/m*3 27.7 C 16.1 km/h
1357 21-06-2020 17:00:00 27.8 C 11.57 g/m*3 27.8 C 14.5 km/h
1358 21-06-2020 17:05:00 28 C 11.69 g/m*3 28 C 11.3 km/h
1359 21-06-2020 17:10:00 28 C 11.15 g/m*3 28 C 17.7 km/h
1360 21-06-2020 17:15:00 27.7 C 10.97 g/m*3 27.7 C 17.7 km/h
1361 21-06-2020 17:20:00 27.8 C 10.76 g/m*3 27.8 C 14.5 km/h
1362 21-06-2020 17:25:00 27.9 C 10.55 g/m*3 27.9 C 12.9 km/h
1363 21-06-2020 17:30:00 27.9 C 10.82 g/m*3 27.9 C 11.3 km/h
1364 21-06-2020 17:35:00 28 C 10.88 g/m*3 28 C 12.9 km/h
1365 21-06-2020 17:40:00 28.1 C 10.66 g/m*3 28.1 C 11.3 km/h
1366 21-06-2020 17:45:00 27.9 C 10.82 g/m*3 27.9 C 11.3 km/h
1367 21-06-2020 17:50:00 27.7 C 10.7 g/m*3 27.7 C 11.3 km/h
1368 21-06-2020 17:55:00 27.4 C 11.58 g/m*3 27.4 C 11.3 km/h
1369 21-06-2020 18:00:00 27.3 C 11.51 g/m*3 27.3 C 9.7 km/h
1370 21-06-2020 18:05:00 27 C 11.07 g/m*3 27 C 11.3 km/h
1371 21-06-2020 18:10:00 26.7 C 11.39 g/m*3 26.7 C 14.5 km/h
1372 21-06-2020 18:15:00 26.4 C 11.2 g/m*3 26.4 C 12.9 km/h
1373 21-06-2020 18:20:00 26.3 C 11.39 g/m*3 26.3 C 8.1 km/h
1374 21-06-2020 18:25:00 26.6 C 11.58 g/m*3 26.6 C 6.4 km/h
1375 21-06-2020 18:30:00 27.2 C 11.71 g/m*3 27.2 C 9.7 km/h
Sensor: Nr:Datum:Temp:Abs-Feuchte:Windchill:Wind:
Aussen-T/F 1376 21-06-2020 18:35:00 27.3 C 11.51 g/m*3 27.3 C 12.9 km/h
1377 21-06-2020 18:40:00 26.8 C 11.71 g/m*3 26.8 C 11.3 km/h
1378 21-06-2020 18:45:00 26.8 C 11.96 g/m*3 26.8 C 11.3 km/h
1379 21-06-2020 18:50:00 26.8 C 11.96 g/m*3 26.8 C 9.7 km/h
1380 21-06-2020 18:55:00 26.9 C 11.77 g/m*3 26.9 C 11.3 km/h
1381 21-06-2020 19:00:00 27 C 11.84 g/m*3 27 C 11.3 km/h
1382 21-06-2020 19:05:00 27.3 C 12.04 g/m*3 27.3 C 9.7 km/h
1383 21-06-2020 19:10:00 27.3 C 12.04 g/m*3 27.3 C 12.9 km/h
1384 21-06-2020 19:15:00 26.7 C 12.15 g/m*3 26.7 C 9.7 km/h
1385 21-06-2020 19:20:00 26.1 C 12.73 g/m*3 26.1 C 8.1 km/h
1386 21-06-2020 19:25:00 25.8 C 12.76 g/m*3 25.8 C 8.1 km/h
1387 21-06-2020 19:30:00 25.5 C 12.78 g/m*3 25.5 C 3.2 km/h
1388 21-06-2020 19:35:00 25.2 C 12.8 g/m*3 25.2 C 8.1 km/h
1389 21-06-2020 19:40:00 25 C 12.66 g/m*3 25 C 3.2 km/h
1390 21-06-2020 19:45:00 24.7 C 13.58 g/m*3 24.7 C 0 km/h
1391 21-06-2020 19:50:00 24.6 C 14.18 g/m*3 24.6 C 1.6 km/h
1392 21-06-2020 19:55:00 24.3 C 12.61 g/m*3 24.3 C 8.1 km/h
1393 21-06-2020 20:00:00 24.2 C 13.86 g/m*3 24.2 C 3.2 km/h
1394 21-06-2020 20:05:00 24.2 C 13.86 g/m*3 24.2 C 4.8 km/h
1395 21-06-2020 20:10:00 24.2 C 14.3 g/m*3 24.2 C 0 km/h
1396 21-06-2020 20:15:00 24.1 C 14 g/m*3 24.1 C 6.4 km/h
1397 21-06-2020 20:20:00 23.9 C 13.63 g/m*3 23.9 C 1.6 km/h
1398 21-06-2020 20:25:00 23.8 C 13.77 g/m*3 23.8 C 1.6 km/h
1399 21-06-2020 20:30:00 23.7 C 13.9 g/m*3 23.7 C 3.2 km/h
1400 21-06-2020 20:35:00 23.6 C 13.82 g/m*3 23.6 C 4.8 km/h
Sensor: Nr:Datum:Temp:Abs-Feuchte:Windchill:Wind:
Aussen-T/F 1401 21-06-2020 20:40:00 23.4 C 14.09 g/m*3 23.4 C 3.2 km/h
1402 21-06-2020 20:45:00 23.2 C 13.93 g/m*3 23.2 C 4.8 km/h
1403 21-06-2020 20:50:00 22.9 C 13.69 g/m*3 22.9 C 4.8 km/h
1404 21-06-2020 20:55:00 22.6 C 13.46 g/m*3 22.6 C 4.8 km/h
1405 21-06-2020 21:00:00 22.4 C 13.31 g/m*3 22.4 C 4.8 km/h
1406 21-06-2020 21:05:00 22.4 C 13.5 g/m*3 22.4 C 4.8 km/h
1407 21-06-2020 21:10:00 22.4 C 13.11 g/m*3 22.4 C 6.4 km/h
1408 21-06-2020 21:15:00 22.5 C 12.18 g/m*3 22.5 C 8.1 km/h
1409 21-06-2020 21:20:00 22.6 C 12.46 g/m*3 22.6 C 1.6 km/h
1410 21-06-2020 21:25:00 22.6 C 13.06 g/m*3 22.6 C 1.6 km/h
1411 21-06-2020 21:30:00 22.5 C 13.18 g/m*3 22.5 C 3.2 km/h
1412 21-06-2020 21:35:00 22.3 C 13.23 g/m*3 22.3 C 0 km/h
1413 21-06-2020 21:40:00 22 C 13 g/m*3 22 C 4.8 km/h
1414 21-06-2020 21:45:00 21.7 C 13.16 g/m*3 21.7 C 4.8 km/h
1415 21-06-2020 21:50:00 21.4 C 12.94 g/m*3 21.4 C 6.4 km/h
1416 21-06-2020 21:55:00 20.9 C 12.75 g/m*3 20.9 C 6.4 km/h
1417 21-06-2020 22:00:00 20.6 C 12.89 g/m*3 20.6 C 4.8 km/h
1418 21-06-2020 22:05:00 20.2 C 12.76 g/m*3 20.2 C 4.8 km/h
1419 21-06-2020 22:10:00 19.9 C 12.71 g/m*3 19.9 C 4.8 km/h
1420 21-06-2020 22:15:00 19.6 C 12.49 g/m*3 19.6 C 4.8 km/h
1421 21-06-2020 22:20:00 19.3 C 12.44 g/m*3 19.3 C 4.8 km/h
1422 21-06-2020 22:25:00 19.1 C 12.46 g/m*3 19.1 C 4.8 km/h
1423 21-06-2020 22:30:00 18.9 C 12.31 g/m*3 18.9 C 6.4 km/h
1424 21-06-2020 22:35:00 18.7 C 12.33 g/m*3 18.7 C 6.4 km/h
1425 21-06-2020 22:40:00 18.5 C 12.18 g/m*3 18.5 C 4.8 km/h
Sensor: Nr:Datum:Temp:Abs-Feuchte:Windchill:Wind:
Aussen-T/F 1426 21-06-2020 22:45:00 18.3 C 12.2 g/m*3 18.3 C 6.4 km/h
1427 21-06-2020 22:50:00 18.2 C 12.28 g/m*3 18.2 C 4.8 km/h
1428 21-06-2020 22:55:00 18.1 C 12.21 g/m*3 18.1 C 4.8 km/h
1429 21-06-2020 23:00:00 18.1 C 12.36 g/m*3 18.1 C 4.8 km/h
1430 21-06-2020 23:05:00 18 C 12.44 g/m*3 18 C 4.8 km/h
1431 21-06-2020 23:10:00 17.9 C 12.37 g/m*3 17.9 C 4.8 km/h
1432 21-06-2020 23:15:00 17.9 C 12.37 g/m*3 17.9 C 3.2 km/h
1433 21-06-2020 23:20:00 17.9 C 12.52 g/m*3 17.9 C 4.8 km/h
1434 21-06-2020 23:25:00 17.8 C 12.45 g/m*3 17.8 C 4.8 km/h
1435 21-06-2020 23:30:00 17.8 C 12.45 g/m*3 17.8 C 3.2 km/h
1436 21-06-2020 23:35:00 17.7 C 12.37 g/m*3 17.7 C 3.2 km/h
1437 21-06-2020 23:40:00 17.7 C 12.52 g/m*3 17.7 C 1.6 km/h
1438 21-06-2020 23:45:00 17.6 C 12.45 g/m*3 17.6 C 0 km/h
1439 21-06-2020 23:50:00 17.6 C 12.45 g/m*3 17.6 C 0 km/h
1440 21-06-2020 23:55:00 17.6 C 12.6 g/m*3 17.6 C 0 km/h

Legende:
   Min
   Max


Maximal/Minimal-Werte vom 23.02.2003 - 29.06.2020

Sensor Min Max Avg
Temp
(Aussen-T/F)
-16.4 °C
20-12-2009  01:30:01
40.4 °C
25-07-2019  16:20:00
11.16 °C

Die Daten stammen von einer Davis Vantage Pro 2 Wetter-Station und werden unter Linux mit der Software wview2wettercgi und aufbereitet. Alle Angaben erfolgen ohne Gewähr für ihre Vollständigkeit oder Richtigkeit.
Kontakt: Rainer Krienke krienke@uni-koblenz.de . Meine Webseiten an der Uni Koblenz oder privat.
Version: $Revision: 0.78 $